<?xml version="1.0" encoding="ISO-8859-1" standalone="yes"?>
<gpx
  version="1.1"
  creator="Touratech QV 4.0.79 Power User - http://www.ttqv.com"
  xmlns:xsi="http://www.w3.org/2001/XMLSchema-instance"  xmlns:topografix="http://www.topografix.com/GPX/Private/TopoGrafix/0/1"
  xmlns="http://www.topografix.com/GPX/1/1"
  xsi:schemaLocation="http://www.topografix.com/GPX/1/1 http://www.topografix.com/GPX/1/1/gpx.xsd">
<metadata>
  <time>2007-12-04T14:09:37Z</time>
  <bounds minlat="51.7430305480957" minlon="7.66716957092285" maxlat="52.0371508598328" maxlon="8.29650163650513"/>
</metadata>
<trk>
  <name>WERSE RAD WEG</name>
  <trkseg>
    <trkpt lat="51.8546104431152" lon="8.29650163650513">
    <ele>-59</ele>
    <time>2007-10-31T09:41:36Z</time>
    </trkpt>
    <trkpt lat="51.8546104431152" lon="8.29650163650513">
    <ele>73</ele>
    <time>2007-10-31T09:48:42Z</time>
    </trkpt>
    <trkpt lat="51.8545889854431" lon="8.29641580581665">
    <ele>70</ele>
    <time>2007-10-31T09:49:49Z</time>
    </trkpt>
    <trkpt lat="51.8545460700989" lon="8.29630851745605">
    <ele>72</ele>
    <time>2007-10-31T09:49:58Z</time>
    </trkpt>
    <trkpt lat="51.8546533584595" lon="8.29581499099731">
    <ele>71</ele>
    <time>2007-10-31T09:50:32Z</time>
    </trkpt>
    <trkpt lat="51.8547177314758" lon="8.2956862449646">
    <ele>72</ele>
    <time>2007-10-31T09:50:39Z</time>
    </trkpt>
    <trkpt lat="51.8548464775085" lon="8.29508543014526">
    <ele>72</ele>
    <time>2007-10-31T09:50:58Z</time>
    </trkpt>
    <trkpt lat="51.8549537658691" lon="8.29480648040771">
    <ele>72</ele>
    <time>2007-10-31T09:51:07Z</time>
    </trkpt>
    <trkpt lat="51.8549537658691" lon="8.294677734375">
    <ele>72</ele>
    <time>2007-10-31T09:51:11Z</time>
    </trkpt>
    <trkpt lat="51.8553185462952" lon="8.29283237457275">
    <ele>72</ele>
    <time>2007-10-31T09:51:52Z</time>
    </trkpt>
    <trkpt lat="51.8554902076721" lon="8.28860521316528">
    <ele>73</ele>
    <time>2007-10-31T09:53:00Z</time>
    </trkpt>
    <trkpt lat="51.8556618690491" lon="8.28759670257568">
    <ele>73</ele>
    <time>2007-10-31T09:53:19Z</time>
    </trkpt>
    <trkpt lat="51.8557691574097" lon="8.2872748374939">
    <ele>73</ele>
    <time>2007-10-31T09:53:30Z</time>
    </trkpt>
    <trkpt lat="51.8560064596375" lon="8.28699008389038">
    <ele>72</ele>
    <time>2007-10-31T10:00:36Z</time>
    </trkpt>
    <trkpt lat="51.8562626838684" lon="8.28669548034668">
    <ele>80</ele>
    <time>2007-10-31T10:07:43Z</time>
    </trkpt>
    <trkpt lat="51.8562412261963" lon="8.28643798828125">
    <ele>80</ele>
    <time>2007-10-31T10:08:01Z</time>
    </trkpt>
    <trkpt lat="51.8560695648193" lon="8.28628778457642">
    <ele>81</ele>
    <time>2007-10-31T10:09:32Z</time>
    </trkpt>
    <trkpt lat="51.8557906150818" lon="8.28585863113403">
    <ele>79</ele>
    <time>2007-10-31T10:15:56Z</time>
    </trkpt>
    <trkpt lat="51.8551468849182" lon="8.28491449356079">
    <ele>78</ele>
    <time>2007-10-31T10:16:19Z</time>
    </trkpt>
    <trkpt lat="51.8545889854431" lon="8.28435659408569">
    <ele>78</ele>
    <time>2007-10-31T10:16:37Z</time>
    </trkpt>
    <trkpt lat="51.8538594245911" lon="8.28420639038086">
    <ele>78</ele>
    <time>2007-10-31T10:16:56Z</time>
    </trkpt>
    <trkpt lat="51.8530654907227" lon="8.28431367874146">
    <ele>78</ele>
    <time>2007-10-31T10:17:19Z</time>
    </trkpt>
    <trkpt lat="51.8528938293457" lon="8.28444242477417">
    <ele>78</ele>
    <time>2007-10-31T10:17:25Z</time>
    </trkpt>
    <trkpt lat="51.8523788452148" lon="8.28463554382324">
    <ele>78</ele>
    <time>2007-10-31T10:17:41Z</time>
    </trkpt>
    <trkpt lat="51.8493747711182" lon="8.28665256500244">
    <ele>78</ele>
    <time>2007-10-31T10:19:17Z</time>
    </trkpt>
    <trkpt lat="51.8492245674133" lon="8.28665256500244">
    <ele>78</ele>
    <time>2007-10-31T10:19:34Z</time>
    </trkpt>
    <trkpt lat="51.8492031097412" lon="8.28654527664185">
    <ele>79</ele>
    <time>2007-10-31T10:19:46Z</time>
    </trkpt>
    <trkpt lat="51.8491387367249" lon="8.2861590385437">
    <ele>76</ele>
    <time>2007-10-31T10:42:49Z</time>
    </trkpt>
    <trkpt lat="51.8490743637085" lon="8.28579425811768">
    <ele>76</ele>
    <time>2007-10-31T10:43:02Z</time>
    </trkpt>
    <trkpt lat="51.8491172790527" lon="8.28482866287231">
    <ele>76</ele>
    <time>2007-10-31T10:43:38Z</time>
    </trkpt>
    <trkpt lat="51.8491387367249" lon="8.28439950942993">
    <ele>75</ele>
    <time>2007-10-31T10:44:36Z</time>
    </trkpt>
    <trkpt lat="51.8489670753479" lon="8.28336954116821">
    <ele>75</ele>
    <time>2007-10-31T10:44:54Z</time>
    </trkpt>
    <trkpt lat="51.8485593795776" lon="8.28266143798828">
    <ele>76</ele>
    <time>2007-10-31T10:45:09Z</time>
    </trkpt>
    <trkpt lat="51.8481945991516" lon="8.28229665756226">
    <ele>76</ele>
    <time>2007-10-31T10:45:22Z</time>
    </trkpt>
    <trkpt lat="51.8467569351196" lon="8.28154563903809">
    <ele>78</ele>
    <time>2007-10-31T10:46:00Z</time>
    </trkpt>
    <trkpt lat="51.8461990356445" lon="8.28081607818604">
    <ele>78</ele>
    <time>2007-10-31T10:46:19Z</time>
    </trkpt>
    <trkpt lat="51.845920085907" lon="8.27970027923584">
    <ele>78</ele>
    <time>2007-10-31T10:46:52Z</time>
    </trkpt>
    <trkpt lat="51.8458342552185" lon="8.27970027923584">
    <ele>78</ele>
    <time>2007-10-31T10:49:37Z</time>
    </trkpt>
    <trkpt lat="51.8456840515137" lon="8.2790994644165">
    <ele>76</ele>
    <time>2007-10-31T10:52:46Z</time>
    </trkpt>
    <trkpt lat="51.8446969985962" lon="8.27457189559937">
    <ele>77</ele>
    <time>2007-10-31T10:54:05Z</time>
    </trkpt>
    <trkpt lat="51.8446326255798" lon="8.27425003051758">
    <ele>77</ele>
    <time>2007-10-31T10:57:07Z</time>
    </trkpt>
    <trkpt lat="51.8440961837769" lon="8.27131032943726">
    <ele>80</ele>
    <time>2007-10-31T10:58:12Z</time>
    </trkpt>
    <trkpt lat="51.8440747261047" lon="8.27092409133911">
    <ele>80</ele>
    <time>2007-10-31T10:58:22Z</time>
    </trkpt>
    <trkpt lat="51.8439888954163" lon="8.27036619186401">
    <ele>81</ele>
    <time>2007-10-31T10:58:44Z</time>
    </trkpt>
    <trkpt lat="51.843581199646" lon="8.26817750930786">
    <ele>82</ele>
    <time>2007-10-31T10:59:22Z</time>
    </trkpt>
    <trkpt lat="51.8431949615479" lon="8.26699733734131">
    <ele>83</ele>
    <time>2007-10-31T10:59:43Z</time>
    </trkpt>
    <trkpt lat="51.8424654006958" lon="8.26545238494873">
    <ele>84</ele>
    <time>2007-10-31T11:00:19Z</time>
    </trkpt>
    <trkpt lat="51.8374872207642" lon="8.26864957809448">
    <ele>91</ele>
    <time>2007-10-31T11:22:37Z</time>
    </trkpt>
    <trkpt lat="51.834762096405" lon="8.27096700668335">
    <ele>85</ele>
    <time>2007-10-31T11:23:43Z</time>
    </trkpt>
    <trkpt lat="51.8346118927002" lon="8.27094554901123">
    <ele>85</ele>
    <time>2007-10-31T11:23:54Z</time>
    </trkpt>
    <trkpt lat="51.8345475196838" lon="8.27077388763428">
    <ele>86</ele>
    <time>2007-10-31T11:33:22Z</time>
    </trkpt>
    <trkpt lat="51.8340969085693" lon="8.26890707015991">
    <ele>86</ele>
    <time>2007-10-31T11:33:56Z</time>
    </trkpt>
    <trkpt lat="51.8325519561768" lon="8.26586008071899">
    <ele>85</ele>
    <time>2007-10-31T11:34:49Z</time>
    </trkpt>
    <trkpt lat="51.8317794799805" lon="8.26502323150635">
    <ele>85</ele>
    <time>2007-10-31T11:35:09Z</time>
    </trkpt>
    <trkpt lat="51.827380657196" lon="8.26197624206543">
    <ele>86</ele>
    <time>2007-10-31T11:36:56Z</time>
    </trkpt>
    <trkpt lat="51.8267154693604" lon="8.26038837432861">
    <ele>86</ele>
    <time>2007-10-31T11:37:21Z</time>
    </trkpt>
    <trkpt lat="51.8264579772949" lon="8.26028108596802">
    <ele>86</ele>
    <time>2007-10-31T11:37:27Z</time>
    </trkpt>
    <trkpt lat="51.8254065513611" lon="8.26019525527954">
    <ele>86</ele>
    <time>2007-10-31T11:37:50Z</time>
    </trkpt>
    <trkpt lat="51.8238830566406" lon="8.26051712036133">
    <ele>87</ele>
    <time>2007-10-31T11:38:43Z</time>
    </trkpt>
    <trkpt lat="51.82377576828" lon="8.25983047485352">
    <ele>88</ele>
    <time>2007-10-31T11:44:46Z</time>
    </trkpt>
    <trkpt lat="51.8223810195923" lon="8.24787855148315">
    <ele>94</ele>
    <time>2007-10-31T11:47:36Z</time>
    </trkpt>
    <trkpt lat="51.8242692947388" lon="8.23925256729126">
    <ele>93</ele>
    <time>2007-10-31T11:49:37Z</time>
    </trkpt>
    <trkpt lat="51.8245911598206" lon="8.23062658309937">
    <ele>96</ele>
    <time>2007-10-31T11:51:51Z</time>
    </trkpt>
    <trkpt lat="51.8245267868042" lon="8.23011159896851">
    <ele>96</ele>
    <time>2007-10-31T11:52:06Z</time>
    </trkpt>
    <trkpt lat="51.8224024772644" lon="8.23019742965698">
    <ele>96</ele>
    <time>2007-10-31T11:59:52Z</time>
    </trkpt>
    <trkpt lat="51.8209648132324" lon="8.23064804077148">
    <ele>96</ele>
    <time>2007-10-31T12:00:27Z</time>
    </trkpt>
    <trkpt lat="51.8208360671997" lon="8.23073387145996">
    <ele>96</ele>
    <time>2007-10-31T12:07:07Z</time>
    </trkpt>
    <trkpt lat="51.8204927444458" lon="8.23090553283691">
    <ele>96</ele>
    <time>2007-10-31T12:14:36Z</time>
    </trkpt>
    <trkpt lat="51.820170879364" lon="8.23101282119751">
    <ele>98</ele>
    <time>2007-10-31T12:14:50Z</time>
    </trkpt>
    <trkpt lat="51.8200635910034" lon="8.23099136352539">
    <ele>98</ele>
    <time>2007-10-31T12:15:02Z</time>
    </trkpt>
    <trkpt lat="51.8199133872986" lon="8.23086261749268">
    <ele>99</ele>
    <time>2007-10-31T12:15:22Z</time>
    </trkpt>
    <trkpt lat="51.8197417259216" lon="8.23026180267334">
    <ele>98</ele>
    <time>2007-10-31T12:15:36Z</time>
    </trkpt>
    <trkpt lat="51.8183255195618" lon="8.2217001914978">
    <ele>104</ele>
    <time>2007-10-31T12:18:28Z</time>
    </trkpt>
    <trkpt lat="51.8135833740234" lon="8.2223653793335">
    <ele>110</ele>
    <time>2007-10-31T12:26:50Z</time>
    </trkpt>
    <trkpt lat="51.8117165565491" lon="8.22045564651489">
    <ele>114</ele>
    <time>2007-10-31T12:27:48Z</time>
    </trkpt>
    <trkpt lat="51.810450553894" lon="8.21846008300781">
    <ele>120</ele>
    <time>2007-10-31T12:28:52Z</time>
    </trkpt>
    <trkpt lat="51.8103647232056" lon="8.21828842163086">
    <ele>123</ele>
    <time>2007-10-31T12:29:01Z</time>
    </trkpt>
    <trkpt lat="51.8100428581238" lon="8.21659326553345">
    <ele>132</ele>
    <time>2007-10-31T12:30:17Z</time>
    </trkpt>
    <trkpt lat="51.8085622787476" lon="8.21483373641968">
    <ele>150</ele>
    <time>2007-10-31T12:32:19Z</time>
    </trkpt>
    <trkpt lat="51.8081760406494" lon="8.21457624435425">
    <ele>151</ele>
    <time>2007-10-31T12:32:36Z</time>
    </trkpt>
    <trkpt lat="51.8076825141907" lon="8.21459770202637">
    <ele>152</ele>
    <time>2007-10-31T12:32:55Z</time>
    </trkpt>
    <trkpt lat="51.8074250221252" lon="8.21472644805908">
    <ele>152</ele>
    <time>2007-10-31T12:33:16Z</time>
    </trkpt>
    <trkpt lat="51.8073177337646" lon="8.2147479057312">
    <ele>150</ele>
    <time>2007-10-31T12:37:45Z</time>
    </trkpt>
    <trkpt lat="51.8069958686829" lon="8.21494102478027">
    <ele>153</ele>
    <time>2007-10-31T12:38:47Z</time>
    </trkpt>
    <trkpt lat="51.8062233924866" lon="8.21500539779663">
    <ele>154</ele>
    <time>2007-10-31T12:39:10Z</time>
    </trkpt>
    <trkpt lat="51.805944442749" lon="8.21498394012451">
    <ele>155</ele>
    <time>2007-10-31T12:49:03Z</time>
    </trkpt>
    <trkpt lat="51.8050861358643" lon="8.21487665176392">
    <ele>156</ele>
    <time>2007-10-31T12:49:27Z</time>
    </trkpt>
    <trkpt lat="51.8040776252747" lon="8.21506977081299">
    <ele>156</ele>
    <time>2007-10-31T12:49:56Z</time>
    </trkpt>
    <trkpt lat="51.8040347099304" lon="8.21498394012451">
    <ele>155</ele>
    <time>2007-10-31T12:50:01Z</time>
    </trkpt>
    <trkpt lat="51.8040776252747" lon="8.21348190307617">
    <ele>154</ele>
    <time>2007-10-31T12:51:55Z</time>
    </trkpt>
    <trkpt lat="51.8040561676025" lon="8.21322441101074">
    <ele>154</ele>
    <time>2007-10-31T12:52:36Z</time>
    </trkpt>
    <trkpt lat="51.8040132522583" lon="8.21270942687988">
    <ele>154</ele>
    <time>2007-10-31T12:52:47Z</time>
    </trkpt>
    <trkpt lat="51.8039274215698" lon="8.21247339248657">
    <ele>153</ele>
    <time>2007-10-31T12:52:51Z</time>
    </trkpt>
    <trkpt lat="51.8036699295044" lon="8.21146488189697">
    <ele>152</ele>
    <time>2007-10-31T12:53:07Z</time>
    </trkpt>
    <trkpt lat="51.8034859812509" lon="8.2113705455437">
    <ele>148</ele>
    <time>2007-10-31T12:54:47Z</time>
    </trkpt>
    <trkpt lat="51.8033695220947" lon="8.21086406707764">
    <ele>150</ele>
    <time>2007-10-31T12:56:28Z</time>
    </trkpt>
    <trkpt lat="51.8030691146851" lon="8.21052074432373">
    <ele>151</ele>
    <time>2007-10-31T12:58:24Z</time>
    </trkpt>
    <trkpt lat="51.8013095855713" lon="8.2083535194397">
    <ele>149</ele>
    <time>2007-10-31T12:59:39Z</time>
    </trkpt>
    <trkpt lat="51.8009448051453" lon="8.20738792419434">
    <ele>148</ele>
    <time>2007-10-31T12:59:58Z</time>
    </trkpt>
    <trkpt lat="51.8008804321289" lon="8.2068943977356">
    <ele>149</ele>
    <time>2007-10-31T13:00:15Z</time>
    </trkpt>
    <trkpt lat="51.8008375167847" lon="8.20676565170288">
    <ele>151</ele>
    <time>2007-10-31T13:04:38Z</time>
    </trkpt>
    <trkpt lat="51.8009662628174" lon="8.20627212524414">
    <ele>150</ele>
    <time>2007-10-31T13:04:51Z</time>
    </trkpt>
    <trkpt lat="51.801239875792" lon="8.20580456220205">
    <ele>147</ele>
    <time>2007-10-31T13:05:25Z</time>
    </trkpt>
    <trkpt lat="51.8017601966858" lon="8.2048773765564">
    <ele>149</ele>
    <time>2007-10-31T13:05:59Z</time>
    </trkpt>
    <trkpt lat="51.80180311203" lon="8.20483446121216">
    <ele>149</ele>
    <time>2007-10-31T13:06:10Z</time>
    </trkpt>
    <trkpt lat="51.8017387390137" lon="8.20470571517944">
    <ele>149</ele>
    <time>2007-10-31T13:07:17Z</time>
    </trkpt>
    <trkpt lat="51.8015885353088" lon="8.20369720458984">
    <ele>148</ele>
    <time>2007-10-31T13:07:36Z</time>
    </trkpt>
    <trkpt lat="51.8017172813416" lon="8.20352554321289">
    <ele>146</ele>
    <time>2007-10-31T13:21:13Z</time>
    </trkpt>
    <trkpt lat="51.8025970458984" lon="8.20279598236084">
    <ele>145</ele>
    <time>2007-10-31T13:21:38Z</time>
    </trkpt>
    <trkpt lat="51.8033480644226" lon="8.20243120193481">
    <ele>143</ele>
    <time>2007-10-31T13:21:59Z</time>
    </trkpt>
    <trkpt lat="51.8034338951111" lon="8.2023024559021">
    <ele>143</ele>
    <time>2007-10-31T13:22:16Z</time>
    </trkpt>
    <trkpt lat="51.8034982681274" lon="8.20215225219727">
    <ele>142</ele>
    <time>2007-10-31T13:23:29Z</time>
    </trkpt>
    <trkpt lat="51.8035840988159" lon="8.20210933685303">
    <ele>142</ele>
    <time>2007-10-31T13:23:32Z</time>
    </trkpt>
    <trkpt lat="51.8038845062256" lon="8.20180892944336">
    <ele>141</ele>
    <time>2007-10-31T13:24:45Z</time>
    </trkpt>
    <trkpt lat="51.804141998291" lon="8.20159435272217">
    <ele>142</ele>
    <time>2007-10-31T13:24:59Z</time>
    </trkpt>
    <trkpt lat="51.8042278289795" lon="8.20161581039429">
    <ele>143</ele>
    <time>2007-10-31T13:26:41Z</time>
    </trkpt>
    <trkpt lat="51.8042707443237" lon="8.20155143737793">
    <ele>141</ele>
    <time>2007-10-31T13:29:25Z</time>
    </trkpt>
    <trkpt lat="51.8044424057007" lon="8.20062875747681">
    <ele>143</ele>
    <time>2007-10-31T13:38:04Z</time>
    </trkpt>
    <trkpt lat="51.8044853210449" lon="8.2003927230835">
    <ele>143</ele>
    <time>2007-10-31T13:38:27Z</time>
    </trkpt>
    <trkpt lat="51.8045496940613" lon="8.20034980773926">
    <ele>143</ele>
    <time>2007-10-31T13:38:39Z</time>
    </trkpt>
    <trkpt lat="51.8050646781921" lon="8.19974899291992">
    <ele>145</ele>
    <time>2007-10-31T13:41:05Z</time>
    </trkpt>
    <trkpt lat="51.8061375617981" lon="8.19893360137939">
    <ele>147</ele>
    <time>2007-10-31T13:41:44Z</time>
    </trkpt>
    <trkpt lat="51.806845664978" lon="8.19710969924927">
    <ele>149</ele>
    <time>2007-10-31T13:43:08Z</time>
    </trkpt>
    <trkpt lat="51.807553768158" lon="8.19657325744629">
    <ele>148</ele>
    <time>2007-10-31T13:49:42Z</time>
    </trkpt>
    <trkpt lat="51.8080687522888" lon="8.19586515426636">
    <ele>146</ele>
    <time>2007-10-31T13:49:56Z</time>
    </trkpt>
    <trkpt lat="51.8092274665833" lon="8.19356918334961">
    <ele>143</ele>
    <time>2007-10-31T13:50:41Z</time>
    </trkpt>
    <trkpt lat="51.8093776702881" lon="8.19339752197266">
    <ele>142</ele>
    <time>2007-10-31T13:50:45Z</time>
    </trkpt>
    <trkpt lat="51.810986995697" lon="8.19213151931763">
    <ele>141</ele>
    <time>2007-10-31T13:51:27Z</time>
    </trkpt>
    <trkpt lat="51.8110728263855" lon="8.19200277328491">
    <ele>141</ele>
    <time>2007-10-31T13:51:37Z</time>
    </trkpt>
    <trkpt lat="51.8108582496643" lon="8.19135904312134">
    <ele>141</ele>
    <time>2007-10-31T13:52:51Z</time>
    </trkpt>
    <trkpt lat="51.8083262443542" lon="8.18402051925659">
    <ele>150</ele>
    <time>2007-10-31T13:55:13Z</time>
    </trkpt>
    <trkpt lat="51.8081974983215" lon="8.18376302719116">
    <ele>150</ele>
    <time>2007-10-31T13:55:27Z</time>
    </trkpt>
    <trkpt lat="51.8061771447102" lon="8.18209045250024">
    <ele>147</ele>
    <time>2007-10-31T13:59:13Z</time>
    </trkpt>
    <trkpt lat="51.8068885803223" lon="8.17927837371826">
    <ele>142</ele>
    <time>2007-10-31T13:59:47Z</time>
    </trkpt>
    <trkpt lat="51.8075108528137" lon="8.17728281021118">
    <ele>140</ele>
    <time>2007-10-31T14:00:14Z</time>
    </trkpt>
    <trkpt lat="51.8076395988464" lon="8.17719697952271">
    <ele>140</ele>
    <time>2007-10-31T14:00:22Z</time>
    </trkpt>
    <trkpt lat="51.8077039718628" lon="8.17706823348999">
    <ele>141</ele>
    <time>2007-10-31T14:01:00Z</time>
    </trkpt>
    <trkpt lat="51.8078112602234" lon="8.17708969116211">
    <ele>142</ele>
    <time>2007-10-31T14:02:39Z</time>
    </trkpt>
    <trkpt lat="51.8078970909119" lon="8.17693948745728">
    <ele>141</ele>
    <time>2007-10-31T14:02:43Z</time>
    </trkpt>
    <trkpt lat="51.8080902099609" lon="8.17608118057251">
    <ele>141</ele>
    <time>2007-10-31T14:03:01Z</time>
    </trkpt>
    <trkpt lat="51.8081760406494" lon="8.1758451461792">
    <ele>141</ele>
    <time>2007-10-31T14:03:06Z</time>
    </trkpt>
    <trkpt lat="51.8081331253052" lon="8.17569494247437">
    <ele>142</ele>
    <time>2007-10-31T14:03:10Z</time>
    </trkpt>
    <trkpt lat="51.8056440353394" lon="8.17361354827881">
    <ele>138</ele>
    <time>2007-10-31T14:05:49Z</time>
    </trkpt>
    <trkpt lat="51.8056225776672" lon="8.17348480224609">
    <ele>137</ele>
    <time>2007-10-31T14:06:19Z</time>
    </trkpt>
    <trkpt lat="51.8056440353394" lon="8.17342042922974">
    <ele>139</ele>
    <time>2007-10-31T14:07:06Z</time>
    </trkpt>
    <trkpt lat="51.8058156967163" lon="8.17296981811523">
    <ele>138</ele>
    <time>2007-10-31T14:08:57Z</time>
    </trkpt>
    <trkpt lat="51.805944442749" lon="8.17266941070557">
    <ele>138</ele>
    <time>2007-10-31T14:09:59Z</time>
    </trkpt>
    <trkpt lat="51.8064165115356" lon="8.17142486572266">
    <ele>138</ele>
    <time>2007-10-31T14:10:29Z</time>
    </trkpt>
    <trkpt lat="51.8063735961914" lon="8.1713604927063">
    <ele>139</ele>
    <time>2007-10-31T14:14:59Z</time>
    </trkpt>
    <trkpt lat="51.8058156967163" lon="8.1708025932312">
    <ele>138</ele>
    <time>2007-10-31T14:15:22Z</time>
    </trkpt>
    <trkpt lat="51.8048286437988" lon="8.16953659057617">
    <ele>137</ele>
    <time>2007-10-31T14:15:51Z</time>
    </trkpt>
    <trkpt lat="51.8047642707825" lon="8.16951513290405">
    <ele>139</ele>
    <time>2007-10-31T14:21:03Z</time>
    </trkpt>
    <trkpt lat="51.8048930168152" lon="8.16897869110107">
    <ele>137</ele>
    <time>2007-10-31T14:21:17Z</time>
    </trkpt>
    <trkpt lat="51.8051505088806" lon="8.16846370697021">
    <ele>137</ele>
    <time>2007-10-31T14:21:30Z</time>
    </trkpt>
    <trkpt lat="51.805579662323" lon="8.16751956939697">
    <ele>134</ele>
    <time>2007-10-31T14:23:40Z</time>
    </trkpt>
    <trkpt lat="51.8066740036011" lon="8.16507339477539">
    <ele>128</ele>
    <time>2007-10-31T14:24:24Z</time>
    </trkpt>
    <trkpt lat="51.8068885803223" lon="8.1648588180542">
    <ele>128</ele>
    <time>2007-10-31T14:24:29Z</time>
    </trkpt>
    <trkpt lat="51.8083691596985" lon="8.1639575958252">
    <ele>125</ele>
    <time>2007-10-31T14:25:01Z</time>
    </trkpt>
    <trkpt lat="51.8099355697632" lon="8.16123247146606">
    <ele>122</ele>
    <time>2007-10-31T14:25:48Z</time>
    </trkpt>
    <trkpt lat="51.810622215271" lon="8.16045999526978">
    <ele>120</ele>
    <time>2007-10-31T14:26:09Z</time>
    </trkpt>
    <trkpt lat="51.8125319480896" lon="8.15739154815674">
    <ele>111</ele>
    <time>2007-10-31T14:27:12Z</time>
    </trkpt>
    <trkpt lat="51.812789440155" lon="8.1572413444519">
    <ele>111</ele>
    <time>2007-10-31T14:27:23Z</time>
    </trkpt>
    <trkpt lat="51.8128752708435" lon="8.15715551376343">
    <ele>110</ele>
    <time>2007-10-31T14:27:42Z</time>
    </trkpt>
    <trkpt lat="51.8131602070041" lon="8.15733780916428">
    <ele>110</ele>
    <time>2007-10-31T14:27:57Z</time>
    </trkpt>
    <trkpt lat="51.8173384666443" lon="8.1534218788147">
    <ele>98</ele>
    <time>2007-10-31T14:33:36Z</time>
    </trkpt>
    <trkpt lat="51.8182826042175" lon="8.15211296081543">
    <ele>97</ele>
    <time>2007-10-31T14:34:06Z</time>
    </trkpt>
    <trkpt lat="51.8184113502502" lon="8.15183401107788">
    <ele>97</ele>
    <time>2007-10-31T14:34:17Z</time>
    </trkpt>
    <trkpt lat="51.818540096283" lon="8.15144777297974">
    <ele>95</ele>
    <time>2007-10-31T14:35:15Z</time>
    </trkpt>
    <trkpt lat="51.8194627761841" lon="8.14908742904663">
    <ele>93</ele>
    <time>2007-10-31T14:42:52Z</time>
    </trkpt>
    <trkpt lat="51.8195271492004" lon="8.14908742904663">
    <ele>92</ele>
    <time>2007-10-31T14:44:57Z</time>
    </trkpt>
    <trkpt lat="51.8214797973633" lon="8.14981698989868">
    <ele>92</ele>
    <time>2007-10-31T14:45:49Z</time>
    </trkpt>
    <trkpt lat="51.822874546051" lon="8.15046072006226">
    <ele>91</ele>
    <time>2007-10-31T14:46:20Z</time>
    </trkpt>
    <trkpt lat="51.8229603767395" lon="8.14992427825928">
    <ele>90</ele>
    <time>2007-10-31T14:47:10Z</time>
    </trkpt>
    <trkpt lat="51.8230676651001" lon="8.14923763275146">
    <ele>89</ele>
    <time>2007-10-31T14:47:24Z</time>
    </trkpt>
    <trkpt lat="51.8230676651001" lon="8.14895868301392">
    <ele>89</ele>
    <time>2007-10-31T14:47:40Z</time>
    </trkpt>
    <trkpt lat="51.8230032920837" lon="8.14889430999756">
    <ele>89</ele>
    <time>2007-10-31T14:47:52Z</time>
    </trkpt>
    <trkpt lat="51.8229603767395" lon="8.14872264862061">
    <ele>87</ele>
    <time>2007-10-31T14:48:21Z</time>
    </trkpt>
    <trkpt lat="51.8229603767395" lon="8.14861536026001">
    <ele>88</ele>
    <time>2007-10-31T14:53:14Z</time>
    </trkpt>
    <trkpt lat="51.8229389190674" lon="8.14848661422729">
    <ele>88</ele>
    <time>2007-10-31T14:53:18Z</time>
    </trkpt>
    <trkpt lat="51.8229389190674" lon="8.14739227294922">
    <ele>88</ele>
    <time>2007-10-31T14:53:41Z</time>
    </trkpt>
    <trkpt lat="51.8225955963135" lon="8.14724206924438">
    <ele>88</ele>
    <time>2007-10-31T14:53:51Z</time>
    </trkpt>
    <trkpt lat="51.8220806121826" lon="8.14717769622803">
    <ele>88</ele>
    <time>2007-10-31T14:54:04Z</time>
    </trkpt>
    <trkpt lat="51.8215656280518" lon="8.14668416976929">
    <ele>87</ele>
    <time>2007-10-31T14:54:22Z</time>
    </trkpt>
    <trkpt lat="51.8213725090027" lon="8.14670562744141">
    <ele>88</ele>
    <time>2007-10-31T14:55:02Z</time>
    </trkpt>
    <trkpt lat="51.8210506439209" lon="8.14629793167114">
    <ele>87</ele>
    <time>2007-10-31T14:55:15Z</time>
    </trkpt>
    <trkpt lat="51.8208146095276" lon="8.14574003219604">
    <ele>88</ele>
    <time>2007-10-31T14:55:32Z</time>
    </trkpt>
    <trkpt lat="51.8209004402161" lon="8.14554691314697">
    <ele>88</ele>
    <time>2007-10-31T15:04:53Z</time>
    </trkpt>
    <trkpt lat="51.8211150169373" lon="8.14483880996704">
    <ele>89</ele>
    <time>2007-10-31T15:05:10Z</time>
    </trkpt>
    <trkpt lat="51.8212223052979" lon="8.14458131790161">
    <ele>89</ele>
    <time>2007-10-31T15:05:58Z</time>
    </trkpt>
    <trkpt lat="51.8210077285767" lon="8.14449548721313">
    <ele>88</ele>
    <time>2007-10-31T15:07:19Z</time>
    </trkpt>
    <trkpt lat="51.820342540741" lon="8.14419507980347">
    <ele>88</ele>
    <time>2007-10-31T15:07:38Z</time>
    </trkpt>
    <trkpt lat="51.8201065063477" lon="8.14400196075439">
    <ele>88</ele>
    <time>2007-10-31T15:07:50Z</time>
    </trkpt>
    <trkpt lat="51.8198704719543" lon="8.14380884170532">
    <ele>90</ele>
    <time>2007-10-31T15:08:56Z</time>
    </trkpt>
    <trkpt lat="51.8188834190369" lon="8.14228534698486">
    <ele>91</ele>
    <time>2007-10-31T15:09:35Z</time>
    </trkpt>
    <trkpt lat="51.8181538581848" lon="8.14067602157593">
    <ele>92</ele>
    <time>2007-10-31T15:10:58Z</time>
    </trkpt>
    <trkpt lat="51.8180465698242" lon="8.14065456390381">
    <ele>92</ele>
    <time>2007-10-31T15:11:06Z</time>
    </trkpt>
    <trkpt lat="51.8179392814636" lon="8.14069747924805">
    <ele>93</ele>
    <time>2007-10-31T15:11:22Z</time>
    </trkpt>
    <trkpt lat="51.8174028396606" lon="8.14065456390381">
    <ele>92</ele>
    <time>2007-10-31T15:17:27Z</time>
    </trkpt>
    <trkpt lat="51.8171882629395" lon="8.14063310623169">
    <ele>92</ele>
    <time>2007-10-31T15:18:20Z</time>
    </trkpt>
    <trkpt lat="51.8150424957275" lon="8.139967918396">
    <ele>93</ele>
    <time>2007-10-31T15:19:17Z</time>
    </trkpt>
    <trkpt lat="51.8149781227112" lon="8.13998937606812">
    <ele>92</ele>
    <time>2007-10-31T15:19:27Z</time>
    </trkpt>
    <trkpt lat="51.8146777153015" lon="8.13979625701904">
    <ele>91</ele>
    <time>2007-10-31T15:22:44Z</time>
    </trkpt>
    <trkpt lat="51.8137121200562" lon="8.13880920410156">
    <ele>92</ele>
    <time>2007-10-31T15:24:08Z</time>
    </trkpt>
    <trkpt lat="51.8134117126465" lon="8.13838005065918">
    <ele>91</ele>
    <time>2007-10-31T15:24:21Z</time>
    </trkpt>
    <trkpt lat="51.8121242523193" lon="8.13586950302124">
    <ele>95</ele>
    <time>2007-10-31T15:25:20Z</time>
    </trkpt>
    <trkpt lat="51.812059879303" lon="8.13565492630005">
    <ele>95</ele>
    <time>2007-10-31T15:25:39Z</time>
    </trkpt>
    <trkpt lat="51.8109011650085" lon="8.13438892364502">
    <ele>96</ele>
    <time>2007-10-31T15:26:50Z</time>
    </trkpt>
    <trkpt lat="51.8108797073364" lon="8.13423871994019">
    <ele>95</ele>
    <time>2007-10-31T15:41:33Z</time>
    </trkpt>
    <trkpt lat="51.8109655380249" lon="8.13370227813721">
    <ele>98</ele>
    <time>2007-10-31T15:41:52Z</time>
    </trkpt>
    <trkpt lat="51.8109655380249" lon="8.13361644744873">
    <ele>99</ele>
    <time>2007-10-31T15:42:20Z</time>
    </trkpt>
    <trkpt lat="51.8110299110413" lon="8.13344478607178">
    <ele>99</ele>
    <time>2007-10-31T15:42:31Z</time>
    </trkpt>
    <trkpt lat="51.8107295036316" lon="8.13310146331787">
    <ele>98</ele>
    <time>2007-10-31T15:43:30Z</time>
    </trkpt>
    <trkpt lat="51.8099141120911" lon="8.13205003738403">
    <ele>97</ele>
    <time>2007-10-31T15:45:57Z</time>
    </trkpt>
    <trkpt lat="51.8099141120911" lon="8.13205003738403">
    <ele>98</ele>
    <time>2007-10-31T15:51:11Z</time>
    </trkpt>
    <trkpt lat="51.8098282814026" lon="8.13202857971191">
    <ele>96</ele>
    <time>2007-10-31T15:53:16Z</time>
    </trkpt>
    <trkpt lat="51.8097424507141" lon="8.13211441040039">
    <ele>96</ele>
    <time>2007-10-31T15:53:20Z</time>
    </trkpt>
    <trkpt lat="51.8096995353699" lon="8.13217878341675">
    <ele>95</ele>
    <time>2007-10-31T15:53:22Z</time>
    </trkpt>
    <trkpt lat="51.8094205856323" lon="8.13217878341675">
    <ele>95</ele>
    <time>2007-10-31T15:53:30Z</time>
    </trkpt>
    <trkpt lat="51.8093347549438" lon="8.13226461410522">
    <ele>95</ele>
    <time>2007-10-31T15:53:33Z</time>
    </trkpt>
    <trkpt lat="51.806309223175" lon="8.1342601776123">
    <ele>101</ele>
    <time>2007-10-31T15:54:58Z</time>
    </trkpt>
    <trkpt lat="51.8057942390442" lon="8.13432455062866">
    <ele>103</ele>
    <time>2007-10-31T15:55:17Z</time>
    </trkpt>
    <trkpt lat="51.8056440353394" lon="8.13438892364502">
    <ele>103</ele>
    <time>2007-10-31T15:55:32Z</time>
    </trkpt>
    <trkpt lat="51.8056011199951" lon="8.13423871994019">
    <ele>104</ele>
    <time>2007-10-31T15:56:47Z</time>
    </trkpt>
    <trkpt lat="51.8056440353394" lon="8.13393831253052">
    <ele>103</ele>
    <time>2007-10-31T15:56:59Z</time>
    </trkpt>
    <trkpt lat="51.8056869506836" lon="8.13383102416992">
    <ele>104</ele>
    <time>2007-10-31T15:58:07Z</time>
    </trkpt>
    <trkpt lat="51.8059229850769" lon="8.13344478607178">
    <ele>104</ele>
    <time>2007-10-31T15:58:21Z</time>
    </trkpt>
    <trkpt lat="51.8060517311096" lon="8.13260793685913">
    <ele>104</ele>
    <time>2007-10-31T15:58:35Z</time>
    </trkpt>
    <trkpt lat="51.8060946464539" lon="8.13243627548218">
    <ele>105</ele>
    <time>2007-10-31T15:58:38Z</time>
    </trkpt>
    <trkpt lat="51.8062448501587" lon="8.13215732574463">
    <ele>104</ele>
    <time>2007-10-31T15:58:43Z</time>
    </trkpt>
    <trkpt lat="51.8065452575684" lon="8.13183546066284">
    <ele>103</ele>
    <time>2007-10-31T15:58:51Z</time>
    </trkpt>
    <trkpt lat="51.8066096305847" lon="8.13119173049927">
    <ele>103</ele>
    <time>2007-10-31T15:59:00Z</time>
    </trkpt>
    <trkpt lat="51.8062019348145" lon="8.12934637069702">
    <ele>104</ele>
    <time>2007-10-31T15:59:26Z</time>
    </trkpt>
    <trkpt lat="51.8059659004211" lon="8.12868118286133">
    <ele>103</ele>
    <time>2007-10-31T15:59:38Z</time>
    </trkpt>
    <trkpt lat="51.8058371543884" lon="8.1284236907959">
    <ele>102</ele>
    <time>2007-10-31T16:00:27Z</time>
    </trkpt>
    <trkpt lat="51.8054294586182" lon="8.12747955322266">
    <ele>102</ele>
    <time>2007-10-31T16:00:41Z</time>
    </trkpt>
    <trkpt lat="51.8043780326843" lon="8.12604188919067">
    <ele>103</ele>
    <time>2007-10-31T16:01:11Z</time>
    </trkpt>
    <trkpt lat="51.7995071411133" lon="8.12168598175049">
    <ele>102</ele>
    <time>2007-10-31T16:02:56Z</time>
    </trkpt>
    <trkpt lat="51.7987132072449" lon="8.12114953994751">
    <ele>104</ele>
    <time>2007-10-31T16:03:17Z</time>
    </trkpt>
    <trkpt lat="51.7978119850159" lon="8.1208062171936">
    <ele>105</ele>
    <time>2007-10-31T16:03:37Z</time>
    </trkpt>
    <trkpt lat="51.7976403236389" lon="8.12050580978394">
    <ele>107</ele>
    <time>2007-10-31T16:03:46Z</time>
    </trkpt>
    <trkpt lat="51.7975759506226" lon="8.11996936798096">
    <ele>108</ele>
    <time>2007-10-31T16:04:53Z</time>
    </trkpt>
    <trkpt lat="51.7971897125244" lon="8.11679363250732">
    <ele>116</ele>
    <time>2007-10-31T16:05:53Z</time>
    </trkpt>
    <trkpt lat="51.7966318130493" lon="8.11518430709839">
    <ele>117</ele>
    <time>2007-10-31T16:06:24Z</time>
    </trkpt>
    <trkpt lat="51.796567440033" lon="8.11366081237793">
    <ele>115</ele>
    <time>2007-10-31T16:06:42Z</time>
    </trkpt>
    <trkpt lat="51.7957520484924" lon="8.11018466949463">
    <ele>119</ele>
    <time>2007-10-31T16:07:35Z</time>
    </trkpt>
    <trkpt lat="51.7948079109192" lon="8.10859680175781">
    <ele>122</ele>
    <time>2007-10-31T16:08:15Z</time>
    </trkpt>
    <trkpt lat="51.7947435379028" lon="8.10855388641357">
    <ele>122</ele>
    <time>2007-10-31T16:08:53Z</time>
    </trkpt>
    <trkpt lat="51.7943143844604" lon="8.10876846313477">
    <ele>122</ele>
    <time>2007-10-31T16:09:08Z</time>
    </trkpt>
    <trkpt lat="51.7929625511169" lon="8.10975551605225">
    <ele>124</ele>
    <time>2007-10-31T16:09:44Z</time>
    </trkpt>
    <trkpt lat="51.79279088974" lon="8.10975551605225">
    <ele>124</ele>
    <time>2007-10-31T16:09:48Z</time>
    </trkpt>
    <trkpt lat="51.7927050590515" lon="8.10973405838013">
    <ele>124</ele>
    <time>2007-10-31T16:09:50Z</time>
    </trkpt>
    <trkpt lat="51.7924690246582" lon="8.10941219329834">
    <ele>125</ele>
    <time>2007-10-31T16:09:57Z</time>
    </trkpt>
    <trkpt lat="51.7922329902649" lon="8.10857534408569">
    <ele>127</ele>
    <time>2007-10-31T16:10:11Z</time>
    </trkpt>
    <trkpt lat="51.7921471595764" lon="8.10842514038086">
    <ele>126</ele>
    <time>2007-10-31T16:10:14Z</time>
    </trkpt>
    <trkpt lat="51.790623664856" lon="8.10627937316895">
    <ele>128</ele>
    <time>2007-10-31T16:10:57Z</time>
    </trkpt>
    <trkpt lat="51.7901945114136" lon="8.10595750808716">
    <ele>129</ele>
    <time>2007-10-31T16:11:08Z</time>
    </trkpt>
    <trkpt lat="51.790087223053" lon="8.10570001602173">
    <ele>128</ele>
    <time>2007-10-31T16:11:13Z</time>
    </trkpt>
    <trkpt lat="51.7885658946231" lon="8.09673456530629">
    <ele>141</ele>
    <time>2007-10-31T16:13:04Z</time>
    </trkpt>
    <trkpt lat="51.7876625061035" lon="8.0914306640625">
    <ele>140</ele>
    <time>2007-10-31T16:14:54Z</time>
    </trkpt>
    <trkpt lat="51.7875337600708" lon="8.09007883071899">
    <ele>139</ele>
    <time>2007-10-31T16:15:11Z</time>
    </trkpt>
    <trkpt lat="51.787507776171" lon="8.08878902345896">
    <ele>137</ele>
    <time>2007-10-31T16:16:41Z</time>
    </trkpt>
    <trkpt lat="51.7874693870544" lon="8.08653831481934">
    <ele>130</ele>
    <time>2007-10-31T16:18:12Z</time>
    </trkpt>
    <trkpt lat="51.7874693870544" lon="8.0858302116394">
    <ele>129</ele>
    <time>2007-10-31T16:20:00Z</time>
    </trkpt>
    <trkpt lat="51.7874479293823" lon="8.08250427246094">
    <ele>119</ele>
    <time>2007-10-31T16:20:35Z</time>
    </trkpt>
    <trkpt lat="51.7878127098084" lon="8.08117389678955">
    <ele>120</ele>
    <time>2007-10-31T16:20:52Z</time>
    </trkpt>
    <trkpt lat="51.7879629135132" lon="8.0798864364624">
    <ele>118</ele>
    <time>2007-10-31T16:21:07Z</time>
    </trkpt>
    <trkpt lat="51.7877054214478" lon="8.07789087295532">
    <ele>118</ele>
    <time>2007-10-31T16:21:31Z</time>
    </trkpt>
    <trkpt lat="51.7877697944641" lon="8.07692527770996">
    <ele>120</ele>
    <time>2007-10-31T16:21:46Z</time>
    </trkpt>
    <trkpt lat="51.7877268791199" lon="8.07628154754639">
    <ele>120</ele>
    <time>2007-10-31T16:21:57Z</time>
    </trkpt>
    <trkpt lat="51.7876410484314" lon="8.07580947875977">
    <ele>120</ele>
    <time>2007-10-31T16:22:06Z</time>
    </trkpt>
    <trkpt lat="51.7876625061035" lon="8.07572364807129">
    <ele>120</ele>
    <time>2007-10-31T16:23:14Z</time>
    </trkpt>
    <trkpt lat="51.7883981963532" lon="8.07528900508026">
    <ele>118</ele>
    <time>2007-10-31T16:23:44Z</time>
    </trkpt>
    <trkpt lat="51.789014339447" lon="8.07492971420288">
    <ele>123</ele>
    <time>2007-10-31T16:24:13Z</time>
    </trkpt>
    <trkpt lat="51.7890357971191" lon="8.07480096817017">
    <ele>123</ele>
    <time>2007-10-31T16:25:11Z</time>
    </trkpt>
    <trkpt lat="51.7882633209229" lon="8.07190418243408">
    <ele>125</ele>
    <time>2007-10-31T16:26:09Z</time>
    </trkpt>
    <trkpt lat="51.7880702018738" lon="8.0714750289917">
    <ele>123</ele>
    <time>2007-10-31T16:26:21Z</time>
    </trkpt>
    <trkpt lat="51.7879843711853" lon="8.07143211364746">
    <ele>123</ele>
    <time>2007-10-31T16:26:58Z</time>
    </trkpt>
    <trkpt lat="51.7879199981689" lon="8.07151794433594">
    <ele>123</ele>
    <time>2007-10-31T16:28:08Z</time>
    </trkpt>
    <trkpt lat="51.7865467071533" lon="8.07254791259766">
    <ele>125</ele>
    <time>2007-10-31T16:28:51Z</time>
    </trkpt>
    <trkpt lat="51.7864394187927" lon="8.0720329284668">
    <ele>127</ele>
    <time>2007-10-31T16:30:23Z</time>
    </trkpt>
    <trkpt lat="51.7862892150879" lon="8.07132482528687">
    <ele>127</ele>
    <time>2007-10-31T16:30:44Z</time>
    </trkpt>
    <trkpt lat="51.78631067276" lon="8.0705738067627">
    <ele>126</ele>
    <time>2007-10-31T16:31:40Z</time>
    </trkpt>
    <trkpt lat="51.7866539955139" lon="8.07027339935303">
    <ele>123</ele>
    <time>2007-10-31T16:31:56Z</time>
    </trkpt>
    <trkpt lat="51.7866539955139" lon="8.07018756866455">
    <ele>124</ele>
    <time>2007-10-31T16:32:37Z</time>
    </trkpt>
    <trkpt lat="51.7859244346619" lon="8.06812763214111">
    <ele>126</ele>
    <time>2007-10-31T16:34:14Z</time>
    </trkpt>
    <trkpt lat="51.7856025695801" lon="8.0683422088623">
    <ele>126</ele>
    <time>2007-10-31T16:35:29Z</time>
    </trkpt>
    <trkpt lat="51.7850017547607" lon="8.0689001083374">
    <ele>128</ele>
    <time>2007-10-31T16:35:49Z</time>
    </trkpt>
    <trkpt lat="51.7839932441711" lon="8.07055234909058">
    <ele>133</ele>
    <time>2007-10-31T16:36:32Z</time>
    </trkpt>
    <trkpt lat="51.7839288711548" lon="8.0704665184021">
    <ele>133</ele>
    <time>2007-10-31T16:36:36Z</time>
    </trkpt>
    <trkpt lat="51.7838001251221" lon="8.07027339935303">
    <ele>129</ele>
    <time>2007-11-05T10:04:04Z</time>
    </trkpt>
    <trkpt lat="51.7836928367615" lon="8.07033777236938">
    <ele>129</ele>
    <time>2007-11-05T10:04:18Z</time>
    </trkpt>
    <trkpt lat="51.7815767493287" lon="8.07317880463672">
    <ele>137</ele>
    <time>2007-11-05T10:07:20Z</time>
    </trkpt>
    <trkpt lat="51.7811822891235" lon="8.07370662689209">
    <ele>134</ele>
    <time>2007-11-05T10:10:22Z</time>
    </trkpt>
    <trkpt lat="51.7807102203369" lon="8.07477951049805">
    <ele>135</ele>
    <time>2007-11-05T10:10:41Z</time>
    </trkpt>
    <trkpt lat="51.779465675354" lon="8.07638883590698">
    <ele>138</ele>
    <time>2007-11-05T10:11:18Z</time>
    </trkpt>
    <trkpt lat="51.778929233551" lon="8.07744026184082">
    <ele>138</ele>
    <time>2007-11-05T10:11:36Z</time>
    </trkpt>
    <trkpt lat="51.778736114502" lon="8.07795524597168">
    <ele>139</ele>
    <time>2007-11-05T10:11:44Z</time>
    </trkpt>
    <trkpt lat="51.778736114502" lon="8.07834148406982">
    <ele>139</ele>
    <time>2007-11-05T10:11:50Z</time>
    </trkpt>
    <trkpt lat="51.7794871330261" lon="8.07995080947876">
    <ele>137</ele>
    <time>2007-11-05T10:12:12Z</time>
    </trkpt>
    <trkpt lat="51.779465675354" lon="8.08053016662598">
    <ele>138</ele>
    <time>2007-11-05T10:12:19Z</time>
    </trkpt>
    <trkpt lat="51.7730927467346" lon="8.09190273284912">
    <ele>145</ele>
    <time>2007-11-05T10:15:17Z</time>
    </trkpt>
    <trkpt lat="51.7728352546692" lon="8.09231042861938">
    <ele>146</ele>
    <time>2007-11-05T10:15:29Z</time>
    </trkpt>
    <trkpt lat="51.7727494239807" lon="8.09231042861938">
    <ele>145</ele>
    <time>2007-11-05T10:17:09Z</time>
    </trkpt>
    <trkpt lat="51.7727065086365" lon="8.09203147888184">
    <ele>145</ele>
    <time>2007-11-05T10:18:55Z</time>
    </trkpt>
    <trkpt lat="51.7706036567688" lon="8.08617353439331">
    <ele>142</ele>
    <time>2007-11-05T10:20:40Z</time>
    </trkpt>
    <trkpt lat="51.7704963684082" lon="8.08598041534424">
    <ele>142</ele>
    <time>2007-11-05T10:24:53Z</time>
    </trkpt>
    <trkpt lat="51.7701959609985" lon="8.085036277771">
    <ele>141</ele>
    <time>2007-11-05T10:25:10Z</time>
    </trkpt>
    <trkpt lat="51.7696595191956" lon="8.08407068252563">
    <ele>142</ele>
    <time>2007-11-05T10:25:28Z</time>
    </trkpt>
    <trkpt lat="51.7672777175903" lon="8.08168888092041">
    <ele>137</ele>
    <time>2007-11-05T10:26:21Z</time>
    </trkpt>
    <trkpt lat="51.766676902771" lon="8.08070182800293">
    <ele>135</ele>
    <time>2007-11-05T10:26:37Z</time>
    </trkpt>
    <trkpt lat="51.7662906646729" lon="8.07911396026611">
    <ele>134</ele>
    <time>2007-11-05T10:26:59Z</time>
    </trkpt>
    <trkpt lat="51.766312122345" lon="8.0788779258728">
    <ele>137</ele>
    <time>2007-11-05T10:32:34Z</time>
    </trkpt>
    <trkpt lat="51.7658829689026" lon="8.07705402374268">
    <ele>138</ele>
    <time>2007-11-05T10:33:11Z</time>
    </trkpt>
    <trkpt lat="51.7653250694275" lon="8.07117462158203">
    <ele>134</ele>
    <time>2007-11-05T10:34:33Z</time>
    </trkpt>
    <trkpt lat="51.7652606964111" lon="8.07119607925415">
    <ele>134</ele>
    <time>2007-11-05T10:37:35Z</time>
    </trkpt>
    <trkpt lat="51.7651534080505" lon="8.07160377502441">
    <ele>132</ele>
    <time>2007-11-05T10:42:40Z</time>
    </trkpt>
    <trkpt lat="51.764702796936" lon="8.07175397872925">
    <ele>133</ele>
    <time>2007-11-05T10:43:31Z</time>
    </trkpt>
    <trkpt lat="51.7639303207397" lon="8.07235479354858">
    <ele>133</ele>
    <time>2007-11-05T10:43:56Z</time>
    </trkpt>
    <trkpt lat="51.7638230323792" lon="8.07229042053223">
    <ele>131</ele>
    <time>2007-11-05T10:44:00Z</time>
    </trkpt>
    <trkpt lat="51.7637586593628" lon="8.06980133056641">
    <ele>124</ele>
    <time>2007-11-05T10:44:38Z</time>
    </trkpt>
    <trkpt lat="51.7638230323792" lon="8.06943655014038">
    <ele>123</ele>
    <time>2007-11-05T10:45:42Z</time>
    </trkpt>
    <trkpt lat="51.763801574707" lon="8.06883573532104">
    <ele>123</ele>
    <time>2007-11-05T10:45:52Z</time>
    </trkpt>
    <trkpt lat="51.7636513710022" lon="8.06853532791138">
    <ele>123</ele>
    <time>2007-11-05T10:46:03Z</time>
    </trkpt>
    <trkpt lat="51.7636299133301" lon="8.06817054748535">
    <ele>122</ele>
    <time>2007-11-05T10:46:37Z</time>
    </trkpt>
    <trkpt lat="51.763608455658" lon="8.06806325912476">
    <ele>122</ele>
    <time>2007-11-05T10:46:46Z</time>
    </trkpt>
    <trkpt lat="51.7635655403137" lon="8.0679988861084">
    <ele>123</ele>
    <time>2007-11-05T10:47:03Z</time>
    </trkpt>
    <trkpt lat="51.7639303207397" lon="8.0665397644043">
    <ele>122</ele>
    <time>2007-11-05T10:47:34Z</time>
    </trkpt>
    <trkpt lat="51.7639303207397" lon="8.06638956069946">
    <ele>122</ele>
    <time>2007-11-05T10:47:57Z</time>
    </trkpt>
    <trkpt lat="51.7640805244446" lon="8.06529521942139">
    <ele>123</ele>
    <time>2007-11-05T10:48:19Z</time>
    </trkpt>
    <trkpt lat="51.7640590667725" lon="8.06377172470093">
    <ele>123</ele>
    <time>2007-11-05T10:48:41Z</time>
    </trkpt>
    <trkpt lat="51.7640376091003" lon="8.06357860565186">
    <ele>123</ele>
    <time>2007-11-05T10:48:44Z</time>
    </trkpt>
    <trkpt lat="51.7639088630676" lon="8.06314945220947">
    <ele>123</ele>
    <time>2007-11-05T10:48:51Z</time>
    </trkpt>
    <trkpt lat="51.7634582519531" lon="8.06265592575073">
    <ele>125</ele>
    <time>2007-11-05T10:49:07Z</time>
    </trkpt>
    <trkpt lat="51.76287487759" lon="8.0621956167763">
    <ele>125</ele>
    <time>2007-11-05T10:49:39Z</time>
    </trkpt>
    <trkpt lat="51.7627501487732" lon="8.06209802627563">
    <ele>127</ele>
    <time>2007-11-05T10:50:12Z</time>
    </trkpt>
    <trkpt lat="51.7625999450684" lon="8.06181907653809">
    <ele>128</ele>
    <time>2007-11-05T10:53:47Z</time>
    </trkpt>
    <trkpt lat="51.7623853683472" lon="8.06164741516113">
    <ele>129</ele>
    <time>2007-11-05T10:54:50Z</time>
    </trkpt>
    <trkpt lat="51.7622351646423" lon="8.06158304214478">
    <ele>128</ele>
    <time>2007-11-05T10:55:18Z</time>
    </trkpt>
    <trkpt lat="51.7606258392334" lon="8.06010246276855">
    <ele>127</ele>
    <time>2007-11-05T10:56:00Z</time>
    </trkpt>
    <trkpt lat="51.7604970932007" lon="8.0600380897522">
    <ele>128</ele>
    <time>2007-11-05T10:56:26Z</time>
    </trkpt>
    <trkpt lat="51.7601108551025" lon="8.05963039398193">
    <ele>129</ele>
    <time>2007-11-05T10:56:48Z</time>
    </trkpt>
    <trkpt lat="51.7600679397583" lon="8.05952310562134">
    <ele>129</ele>
    <time>2007-11-05T10:57:04Z</time>
    </trkpt>
    <trkpt lat="51.7599391937256" lon="8.05930852890015">
    <ele>130</ele>
    <time>2007-11-05T10:58:02Z</time>
    </trkpt>
    <trkpt lat="51.7597889900208" lon="8.05922269821167">
    <ele>132</ele>
    <time>2007-11-05T10:58:16Z</time>
    </trkpt>
    <trkpt lat="51.759660243988" lon="8.05924415588379">
    <ele>132</ele>
    <time>2007-11-05T10:59:21Z</time>
    </trkpt>
    <trkpt lat="51.759295463562" lon="8.05881500244141">
    <ele>132</ele>
    <time>2007-11-05T11:00:23Z</time>
    </trkpt>
    <trkpt lat="51.7589950561523" lon="8.05812835693359">
    <ele>131</ele>
    <time>2007-11-05T11:00:37Z</time>
    </trkpt>
    <trkpt lat="51.7586731910706" lon="8.05789232254028">
    <ele>131</ele>
    <time>2007-11-05T11:00:47Z</time>
    </trkpt>
    <trkpt lat="51.7581152915955" lon="8.05776357650757">
    <ele>129</ele>
    <time>2007-11-05T11:01:05Z</time>
    </trkpt>
    <trkpt lat="51.7580723762512" lon="8.05772066116333">
    <ele>130</ele>
    <time>2007-11-05T11:02:19Z</time>
    </trkpt>
    <trkpt lat="51.7579650878906" lon="8.05774211883545">
    <ele>130</ele>
    <time>2007-11-05T11:03:31Z</time>
    </trkpt>
    <trkpt lat="51.7578792572021" lon="8.05772066116333">
    <ele>130</ele>
    <time>2007-11-05T11:03:41Z</time>
    </trkpt>
    <trkpt lat="51.7577934265137" lon="8.0575704574585">
    <ele>128</ele>
    <time>2007-11-05T11:03:54Z</time>
    </trkpt>
    <trkpt lat="51.7577719688416" lon="8.0574631690979">
    <ele>128</ele>
    <time>2007-11-05T11:07:42Z</time>
    </trkpt>
    <trkpt lat="51.7577290534973" lon="8.05737733840942">
    <ele>128</ele>
    <time>2007-11-05T11:07:46Z</time>
    </trkpt>
    <trkpt lat="51.7574501037598" lon="8.05505990982056">
    <ele>124</ele>
    <time>2007-11-05T11:08:24Z</time>
    </trkpt>
    <trkpt lat="51.7573857307434" lon="8.0549955368042">
    <ele>123</ele>
    <time>2007-11-05T11:09:35Z</time>
    </trkpt>
    <trkpt lat="51.7573428153992" lon="8.05402994155884">
    <ele>122</ele>
    <time>2007-11-05T11:10:41Z</time>
    </trkpt>
    <trkpt lat="51.7572784423828" lon="8.05396556854248">
    <ele>122</ele>
    <time>2007-11-05T11:11:23Z</time>
    </trkpt>
    <trkpt lat="51.7572355270386" lon="8.05370807647705">
    <ele>122</ele>
    <time>2007-11-05T11:11:31Z</time>
    </trkpt>
    <trkpt lat="51.7573857307434" lon="8.05104732513428">
    <ele>124</ele>
    <time>2007-11-05T11:16:13Z</time>
    </trkpt>
    <trkpt lat="51.756763458252" lon="8.0509614944458">
    <ele>127</ele>
    <time>2007-11-05T11:16:42Z</time>
    </trkpt>
    <trkpt lat="51.7567849159241" lon="8.05068254470825">
    <ele>128</ele>
    <time>2007-11-05T11:17:50Z</time>
    </trkpt>
    <trkpt lat="51.7572355270386" lon="8.0486011505127">
    <ele>125</ele>
    <time>2007-11-05T11:18:20Z</time>
    </trkpt>
    <trkpt lat="51.7572140693665" lon="8.04834365844727">
    <ele>125</ele>
    <time>2007-11-05T11:18:25Z</time>
    </trkpt>
    <trkpt lat="51.7573642730713" lon="8.04812908172607">
    <ele>126</ele>
    <time>2007-11-05T11:20:09Z</time>
    </trkpt>
    <trkpt lat="51.7574071884155" lon="8.04802179336548">
    <ele>125</ele>
    <time>2007-11-05T11:20:48Z</time>
    </trkpt>
    <trkpt lat="51.7574715614319" lon="8.04774284362793">
    <ele>123</ele>
    <time>2007-11-05T11:21:00Z</time>
    </trkpt>
    <trkpt lat="51.7574501037598" lon="8.04767847061157">
    <ele>124</ele>
    <time>2007-11-05T11:25:17Z</time>
    </trkpt>
    <trkpt lat="51.7574071884155" lon="8.04763555526733">
    <ele>123</ele>
    <time>2007-11-05T11:25:21Z</time>
    </trkpt>
    <trkpt lat="51.7571926116943" lon="8.04701328277588">
    <ele>121</ele>
    <time>2007-11-05T11:25:36Z</time>
    </trkpt>
    <trkpt lat="51.7566347122192" lon="8.04611206054688">
    <ele>121</ele>
    <time>2007-11-05T11:25:58Z</time>
    </trkpt>
    <trkpt lat="51.7564630508423" lon="8.04594039916992">
    <ele>118</ele>
    <time>2007-11-05T11:26:05Z</time>
    </trkpt>
    <trkpt lat="51.7564415931702" lon="8.04585456848145">
    <ele>119</ele>
    <time>2007-11-05T11:26:10Z</time>
    </trkpt>
    <trkpt lat="51.7563986778259" lon="8.04576873779297">
    <ele>119</ele>
    <time>2007-11-05T11:26:23Z</time>
    </trkpt>
    <trkpt lat="51.7563343048096" lon="8.04574728012085">
    <ele>118</ele>
    <time>2007-11-05T11:26:41Z</time>
    </trkpt>
    <trkpt lat="51.7559695243835" lon="8.04572582244873">
    <ele>118</ele>
    <time>2007-11-05T11:32:41Z</time>
    </trkpt>
    <trkpt lat="51.7556262016296" lon="8.04585456848145">
    <ele>118</ele>
    <time>2007-11-05T11:32:50Z</time>
    </trkpt>
    <trkpt lat="51.7555618286133" lon="8.04579019546509">
    <ele>117</ele>
    <time>2007-11-05T11:34:48Z</time>
    </trkpt>
    <trkpt lat="51.7553901672363" lon="8.04536104202271">
    <ele>117</ele>
    <time>2007-11-05T11:35:53Z</time>
    </trkpt>
    <trkpt lat="51.7551326751709" lon="8.04514646530151">
    <ele>117</ele>
    <time>2007-11-05T11:36:06Z</time>
    </trkpt>
    <trkpt lat="51.7549180984497" lon="8.04514646530151">
    <ele>116</ele>
    <time>2007-11-05T11:36:39Z</time>
    </trkpt>
    <trkpt lat="51.7546391487122" lon="8.04499626159668">
    <ele>116</ele>
    <time>2007-11-05T11:36:57Z</time>
    </trkpt>
    <trkpt lat="51.7545962333679" lon="8.0449104309082">
    <ele>117</ele>
    <time>2007-11-05T11:37:46Z</time>
    </trkpt>
    <trkpt lat="51.75461769104" lon="8.04478168487549">
    <ele>117</ele>
    <time>2007-11-05T11:37:52Z</time>
    </trkpt>
    <trkpt lat="51.7546820640564" lon="8.04458856582642">
    <ele>116</ele>
    <time>2007-11-05T11:38:02Z</time>
    </trkpt>
    <trkpt lat="51.7546391487122" lon="8.04452419281006">
    <ele>116</ele>
    <time>2007-11-05T11:38:14Z</time>
    </trkpt>
    <trkpt lat="51.7538237571716" lon="8.04366588592529">
    <ele>115</ele>
    <time>2007-11-05T11:39:03Z</time>
    </trkpt>
    <trkpt lat="51.7535662651062" lon="8.04297924041748">
    <ele>115</ele>
    <time>2007-11-05T11:39:20Z</time>
    </trkpt>
    <trkpt lat="51.753523349762" lon="8.04265737533569">
    <ele>115</ele>
    <time>2007-11-05T11:40:32Z</time>
    </trkpt>
    <trkpt lat="51.7535448074341" lon="8.04160594940186">
    <ele>115</ele>
    <time>2007-11-05T11:40:50Z</time>
    </trkpt>
    <trkpt lat="51.753523349762" lon="8.04134845733643">
    <ele>115</ele>
    <time>2007-11-05T11:40:55Z</time>
    </trkpt>
    <trkpt lat="51.7536306381226" lon="8.04033994674683">
    <ele>115</ele>
    <time>2007-11-05T11:41:26Z</time>
    </trkpt>
    <trkpt lat="51.7536950111389" lon="8.04014682769775">
    <ele>115</ele>
    <time>2007-11-05T11:42:48Z</time>
    </trkpt>
    <trkpt lat="51.7538452148438" lon="8.03935289382935">
    <ele>115</ele>
    <time>2007-11-05T11:43:02Z</time>
    </trkpt>
    <trkpt lat="51.7538452148438" lon="8.03918123245239">
    <ele>115</ele>
    <time>2007-11-05T11:43:12Z</time>
    </trkpt>
    <trkpt lat="51.7541142387917" lon="8.03724651412888">
    <ele>109</ele>
    <time>2007-11-05T11:45:30Z</time>
    </trkpt>
    <trkpt lat="51.7541885375977" lon="8.03677797317505">
    <ele>115</ele>
    <time>2007-11-05T11:47:49Z</time>
    </trkpt>
    <trkpt lat="51.7541885375977" lon="8.03662776947021">
    <ele>115</ele>
    <time>2007-11-05T11:47:56Z</time>
    </trkpt>
    <trkpt lat="51.754252910614" lon="8.03654193878174">
    <ele>116</ele>
    <time>2007-11-05T11:48:10Z</time>
    </trkpt>
    <trkpt lat="51.754252910614" lon="8.03624153137207">
    <ele>115</ele>
    <time>2007-11-05T11:48:56Z</time>
    </trkpt>
    <trkpt lat="51.7541885375977" lon="8.03574800491333">
    <ele>113</ele>
    <time>2007-11-05T11:50:17Z</time>
    </trkpt>
    <trkpt lat="51.7541885375977" lon="8.0345892906189">
    <ele>113</ele>
    <time>2007-11-05T11:50:35Z</time>
    </trkpt>
    <trkpt lat="51.753716468811" lon="8.03428888320923">
    <ele>113</ele>
    <time>2007-11-05T11:50:49Z</time>
    </trkpt>
    <trkpt lat="51.7536520957947" lon="8.03422451019287">
    <ele>113</ele>
    <time>2007-11-05T11:51:02Z</time>
    </trkpt>
    <trkpt lat="51.7536735534668" lon="8.03411722183228">
    <ele>112</ele>
    <time>2007-11-05T11:54:10Z</time>
    </trkpt>
    <trkpt lat="51.7538666725159" lon="8.03355932235718">
    <ele>112</ele>
    <time>2007-11-05T11:54:25Z</time>
    </trkpt>
    <trkpt lat="51.7541670799255" lon="8.03218603134155">
    <ele>113</ele>
    <time>2007-11-05T11:55:00Z</time>
    </trkpt>
    <trkpt lat="51.7541670799255" lon="8.03205728530884">
    <ele>113</ele>
    <time>2007-11-05T11:55:23Z</time>
    </trkpt>
    <trkpt lat="51.7543172836304" lon="8.031907081604">
    <ele>112</ele>
    <time>2007-11-05T11:57:40Z</time>
    </trkpt>
    <trkpt lat="51.7545104026794" lon="8.03147792816162">
    <ele>111</ele>
    <time>2007-11-05T11:57:57Z</time>
    </trkpt>
    <trkpt lat="51.7547035217285" lon="8.03128480911255">
    <ele>109</ele>
    <time>2007-11-05T11:59:29Z</time>
    </trkpt>
    <trkpt lat="51.7549610137939" lon="8.03092002868652">
    <ele>109</ele>
    <time>2007-11-05T11:59:37Z</time>
    </trkpt>
    <trkpt lat="51.7550468444824" lon="8.03059816360474">
    <ele>109</ele>
    <time>2007-11-05T11:59:42Z</time>
    </trkpt>
    <trkpt lat="51.7552828788757" lon="8.03019046783447">
    <ele>110</ele>
    <time>2007-11-05T11:59:52Z</time>
    </trkpt>
    <trkpt lat="51.7557978630066" lon="8.02995443344116">
    <ele>108</ele>
    <time>2007-11-05T12:00:10Z</time>
    </trkpt>
    <trkpt lat="51.7563343048096" lon="8.02733659744263">
    <ele>107</ele>
    <time>2007-11-05T12:00:42Z</time>
    </trkpt>
    <trkpt lat="51.7564415931702" lon="8.02712202072144">
    <ele>107</ele>
    <time>2007-11-05T12:00:45Z</time>
    </trkpt>
    <trkpt lat="51.7572999000549" lon="8.02587747573853">
    <ele>108</ele>
    <time>2007-11-05T12:01:11Z</time>
    </trkpt>
    <trkpt lat="51.7573857307434" lon="8.02570581436157">
    <ele>107</ele>
    <time>2007-11-05T12:01:14Z</time>
    </trkpt>
    <trkpt lat="51.7575788497925" lon="8.02476167678833">
    <ele>108</ele>
    <time>2007-11-05T12:01:27Z</time>
    </trkpt>
    <trkpt lat="51.7573213577271" lon="8.0236029624939">
    <ele>109</ele>
    <time>2007-11-05T12:01:43Z</time>
    </trkpt>
    <trkpt lat="51.7572355270386" lon="8.02340984344482">
    <ele>108</ele>
    <time>2007-11-05T12:01:46Z</time>
    </trkpt>
    <trkpt lat="51.7571926116943" lon="8.02261590957642">
    <ele>107</ele>
    <time>2007-11-05T12:01:56Z</time>
    </trkpt>
    <trkpt lat="51.7574501037598" lon="8.02212238311768">
    <ele>107</ele>
    <time>2007-11-05T12:02:05Z</time>
    </trkpt>
    <trkpt lat="51.757493019104" lon="8.02150011062622">
    <ele>108</ele>
    <time>2007-11-05T12:02:19Z</time>
    </trkpt>
    <trkpt lat="51.7575788497925" lon="8.02162885665894">
    <ele>110</ele>
    <time>2007-11-05T12:03:03Z</time>
    </trkpt>
    <trkpt lat="51.7578792572021" lon="8.02188634872437">
    <ele>111</ele>
    <time>2007-11-05T12:03:19Z</time>
    </trkpt>
    <trkpt lat="51.7582440376282" lon="8.02199363708496">
    <ele>111</ele>
    <time>2007-11-05T12:03:37Z</time>
    </trkpt>
    <trkpt lat="51.7584156990051" lon="8.02199363708496">
    <ele>112</ele>
    <time>2007-11-05T12:05:05Z</time>
    </trkpt>
    <trkpt lat="51.7585015296936" lon="8.0220365524292">
    <ele>112</ele>
    <time>2007-11-05T12:05:15Z</time>
    </trkpt>
    <trkpt lat="51.7597246170044" lon="8.02227258682251">
    <ele>114</ele>
    <time>2007-11-05T12:06:34Z</time>
    </trkpt>
    <trkpt lat="51.7612266540527" lon="8.02300214767456">
    <ele>112</ele>
    <time>2007-11-05T12:09:08Z</time>
    </trkpt>
    <trkpt lat="51.7614412307739" lon="8.02287340164185">
    <ele>110</ele>
    <time>2007-11-05T12:10:37Z</time>
    </trkpt>
    <trkpt lat="51.7615485191345" lon="8.02268028259277">
    <ele>107</ele>
    <time>2007-11-05T12:10:47Z</time>
    </trkpt>
    <trkpt lat="51.7613124847412" lon="8.01961183547974">
    <ele>105</ele>
    <time>2007-11-05T12:11:51Z</time>
    </trkpt>
    <trkpt lat="51.7611837387085" lon="8.01937580108643">
    <ele>106</ele>
    <time>2007-11-05T12:11:55Z</time>
    </trkpt>
    <trkpt lat="51.7608404159546" lon="8.01916122436523">
    <ele>105</ele>
    <time>2007-11-05T12:12:02Z</time>
    </trkpt>
    <trkpt lat="51.7606902122498" lon="8.01853895187378">
    <ele>106</ele>
    <time>2007-11-05T12:12:11Z</time>
    </trkpt>
    <trkpt lat="51.7609477043152" lon="8.01806688308716">
    <ele>106</ele>
    <time>2007-11-05T12:12:19Z</time>
    </trkpt>
    <trkpt lat="51.7609906196594" lon="8.01785230636597">
    <ele>105</ele>
    <time>2007-11-05T12:12:22Z</time>
    </trkpt>
    <trkpt lat="51.7611837387085" lon="8.01761627197266">
    <ele>105</ele>
    <time>2007-11-05T12:12:27Z</time>
    </trkpt>
    <trkpt lat="51.7616128921509" lon="8.0174446105957">
    <ele>103</ele>
    <time>2007-11-05T12:12:35Z</time>
    </trkpt>
    <trkpt lat="51.7621493339539" lon="8.01667213439941">
    <ele>104</ele>
    <time>2007-11-05T12:12:49Z</time>
    </trkpt>
    <trkpt lat="51.7622780799866" lon="8.0160927772522">
    <ele>104</ele>
    <time>2007-11-05T12:12:57Z</time>
    </trkpt>
    <trkpt lat="51.7636513710022" lon="8.01405429840088">
    <ele>114</ele>
    <time>2007-11-05T12:14:05Z</time>
    </trkpt>
    <trkpt lat="51.7637157440186" lon="8.01398992538452">
    <ele>115</ele>
    <time>2007-11-05T12:17:31Z</time>
    </trkpt>
    <trkpt lat="51.7637586593628" lon="8.01392555236816">
    <ele>114</ele>
    <time>2007-11-05T12:18:44Z</time>
    </trkpt>
    <trkpt lat="51.7636728286743" lon="8.01390409469604">
    <ele>112</ele>
    <time>2007-11-05T12:20:55Z</time>
    </trkpt>
    <trkpt lat="51.7622995376587" lon="8.01038503646851">
    <ele>105</ele>
    <time>2007-11-05T12:23:20Z</time>
    </trkpt>
    <trkpt lat="51.7620420455933" lon="8.01010608673096">
    <ele>105</ele>
    <time>2007-11-05T12:23:25Z</time>
    </trkpt>
    <trkpt lat="51.7602600483999" lon="8.00973977461739">
    <ele>97</ele>
    <time>2007-11-05T12:24:18Z</time>
    </trkpt>
    <trkpt lat="51.759467124939" lon="8.00956964492798">
    <ele>100</ele>
    <time>2007-11-05T12:25:11Z</time>
    </trkpt>
    <trkpt lat="51.7593812942505" lon="8.00956964492798">
    <ele>100</ele>
    <time>2007-11-05T12:25:21Z</time>
    </trkpt>
    <trkpt lat="51.7592740058899" lon="8.008131980896">
    <ele>98</ele>
    <time>2007-11-05T12:27:05Z</time>
    </trkpt>
    <trkpt lat="51.7593169212341" lon="8.00733804702759">
    <ele>98</ele>
    <time>2007-11-05T12:27:20Z</time>
    </trkpt>
    <trkpt lat="51.7593812942505" lon="8.00729513168335">
    <ele>98</ele>
    <time>2007-11-05T12:27:29Z</time>
    </trkpt>
    <trkpt lat="51.7594242095947" lon="8.00735950469971">
    <ele>98</ele>
    <time>2007-11-05T12:29:46Z</time>
    </trkpt>
    <trkpt lat="51.7593598365784" lon="8.00729513168335">
    <ele>98</ele>
    <time>2007-11-05T12:29:57Z</time>
    </trkpt>
    <trkpt lat="51.7593598365784" lon="8.00720930099487">
    <ele>98</ele>
    <time>2007-11-05T12:30:01Z</time>
    </trkpt>
    <trkpt lat="51.7593812942505" lon="8.00708055496216">
    <ele>97</ele>
    <time>2007-11-05T12:30:05Z</time>
    </trkpt>
    <trkpt lat="51.7593598365784" lon="8.00686597824097">
    <ele>99</ele>
    <time>2007-11-05T12:30:18Z</time>
    </trkpt>
    <trkpt lat="51.759295463562" lon="8.0065655708313">
    <ele>98</ele>
    <time>2007-11-05T12:31:05Z</time>
    </trkpt>
    <trkpt lat="51.7589735984802" lon="8.00559997558594">
    <ele>98</ele>
    <time>2007-11-05T12:31:22Z</time>
    </trkpt>
    <trkpt lat="51.7576432228088" lon="8.00336837768555">
    <ele>100</ele>
    <time>2007-11-05T12:32:05Z</time>
    </trkpt>
    <trkpt lat="51.757128238678" lon="8.00160884857178">
    <ele>97</ele>
    <time>2007-11-05T12:32:33Z</time>
    </trkpt>
    <trkpt lat="51.7570209503174" lon="8.00057888031006">
    <ele>97</ele>
    <time>2007-11-05T12:32:48Z</time>
    </trkpt>
    <trkpt lat="51.7570853233337" lon="8.00032138824463">
    <ele>97</ele>
    <time>2007-11-05T12:32:52Z</time>
    </trkpt>
    <trkpt lat="51.7571496963501" lon="7.99959182739258">
    <ele>96</ele>
    <time>2007-11-05T12:33:00Z</time>
    </trkpt>
    <trkpt lat="51.7571496963501" lon="7.99935579299927">
    <ele>96</ele>
    <time>2007-11-05T12:33:03Z</time>
    </trkpt>
    <trkpt lat="51.7573213577271" lon="7.99856185913086">
    <ele>97</ele>
    <time>2007-11-05T12:33:15Z</time>
    </trkpt>
    <trkpt lat="51.7573428153992" lon="7.99778938293457">
    <ele>97</ele>
    <time>2007-11-05T12:33:30Z</time>
    </trkpt>
    <trkpt lat="51.7573857307434" lon="7.99768209457397">
    <ele>96</ele>
    <time>2007-11-05T12:33:46Z</time>
    </trkpt>
    <trkpt lat="51.7574286460876" lon="7.9965877532959">
    <ele>94</ele>
    <time>2007-11-05T12:34:08Z</time>
    </trkpt>
    <trkpt lat="51.7568492889404" lon="7.99287557601929">
    <ele>94</ele>
    <time>2007-11-05T12:35:48Z</time>
    </trkpt>
    <trkpt lat="51.756763458252" lon="7.99276828765869">
    <ele>94</ele>
    <time>2007-11-05T12:36:17Z</time>
    </trkpt>
    <trkpt lat="51.756763458252" lon="7.99263954162598">
    <ele>94</ele>
    <time>2007-11-05T12:36:21Z</time>
    </trkpt>
    <trkpt lat="51.7563772201538" lon="7.98976421356201">
    <ele>93</ele>
    <time>2007-11-05T12:37:01Z</time>
    </trkpt>
    <trkpt lat="51.7561637808202" lon="7.98897571763622">
    <ele>90</ele>
    <time>2007-11-05T12:37:44Z</time>
    </trkpt>
    <trkpt lat="51.755690574646" lon="7.98725366592407">
    <ele>93</ele>
    <time>2007-11-05T12:38:27Z</time>
    </trkpt>
    <trkpt lat="51.7556476593018" lon="7.98607349395752">
    <ele>92</ele>
    <time>2007-11-05T12:38:42Z</time>
    </trkpt>
    <trkpt lat="51.7561411857605" lon="7.98294067382813">
    <ele>92</ele>
    <time>2007-11-05T12:39:22Z</time>
    </trkpt>
    <trkpt lat="51.7558836936951" lon="7.97558069229126">
    <ele>91</ele>
    <time>2007-11-05T12:40:49Z</time>
    </trkpt>
    <trkpt lat="51.7555832862854" lon="7.97399282455444">
    <ele>91</ele>
    <time>2007-11-05T12:41:09Z</time>
    </trkpt>
    <trkpt lat="51.7551755905151" lon="7.97274827957153">
    <ele>91</ele>
    <time>2007-11-05T12:41:25Z</time>
    </trkpt>
    <trkpt lat="51.7538237571716" lon="7.9700231552124">
    <ele>91</ele>
    <time>2007-11-05T12:42:08Z</time>
    </trkpt>
    <trkpt lat="51.7518067359924" lon="7.9630708694458">
    <ele>89</ele>
    <time>2007-11-05T12:43:51Z</time>
    </trkpt>
    <trkpt lat="51.7511125451372" lon="7.95838374666012">
    <ele>84</ele>
    <time>2007-11-05T12:45:15Z</time>
    </trkpt>
    <trkpt lat="51.7498111724854" lon="7.94953107833862">
    <ele>86</ele>
    <time>2007-11-05T12:46:40Z</time>
    </trkpt>
    <trkpt lat="51.7492961883545" lon="7.94809341430664">
    <ele>86</ele>
    <time>2007-11-05T12:47:01Z</time>
    </trkpt>
    <trkpt lat="51.7490601539612" lon="7.94777154922485">
    <ele>87</ele>
    <time>2007-11-05T12:47:14Z</time>
    </trkpt>
    <trkpt lat="51.747043132782" lon="7.94416666030884">
    <ele>85</ele>
    <time>2007-11-05T12:53:22Z</time>
    </trkpt>
    <trkpt lat="51.7447471618652" lon="7.93684959411621">
    <ele>85</ele>
    <time>2007-11-05T12:55:03Z</time>
    </trkpt>
    <trkpt lat="51.7444467544556" lon="7.93487548828125">
    <ele>85</ele>
    <time>2007-11-05T12:55:28Z</time>
    </trkpt>
    <trkpt lat="51.7444038391113" lon="7.93251514434814">
    <ele>84</ele>
    <time>2007-11-05T12:55:54Z</time>
    </trkpt>
    <trkpt lat="51.7442107200623" lon="7.93071269989014">
    <ele>84</ele>
    <time>2007-11-05T12:56:15Z</time>
    </trkpt>
    <trkpt lat="51.743266582489" lon="7.92785882949829">
    <ele>83</ele>
    <time>2007-11-05T12:56:52Z</time>
    </trkpt>
    <trkpt lat="51.7430305480957" lon="7.92588472366333">
    <ele>82</ele>
    <time>2007-11-05T12:57:16Z</time>
    </trkpt>
    <trkpt lat="51.743438243866" lon="7.92268753051758">
    <ele>80</ele>
    <time>2007-11-05T12:57:59Z</time>
    </trkpt>
    <trkpt lat="51.7441248893738" lon="7.92116403579712">
    <ele>80</ele>
    <time>2007-11-05T12:58:21Z</time>
    </trkpt>
    <trkpt lat="51.7444896697998" lon="7.91983366012573">
    <ele>80</ele>
    <time>2007-11-05T12:58:39Z</time>
    </trkpt>
    <trkpt lat="51.7444896697998" lon="7.91964054107666">
    <ele>83</ele>
    <time>2007-11-05T13:06:09Z</time>
    </trkpt>
    <trkpt lat="51.7445111274719" lon="7.91873931884766">
    <ele>84</ele>
    <time>2007-11-05T13:07:24Z</time>
    </trkpt>
    <trkpt lat="51.745777130127" lon="7.91219472885132">
    <ele>81</ele>
    <time>2007-11-05T13:10:49Z</time>
    </trkpt>
    <trkpt lat="51.7461633682251" lon="7.91101455688477">
    <ele>82</ele>
    <time>2007-11-05T13:14:34Z</time>
    </trkpt>
    <trkpt lat="51.7471504211426" lon="7.9095983505249">
    <ele>82</ele>
    <time>2007-11-05T13:15:03Z</time>
    </trkpt>
    <trkpt lat="51.7489528656006" lon="7.90856838226318">
    <ele>85</ele>
    <time>2007-11-05T13:16:18Z</time>
    </trkpt>
    <trkpt lat="51.7494893074036" lon="7.90807485580444">
    <ele>85</ele>
    <time>2007-11-05T13:16:35Z</time>
    </trkpt>
    <trkpt lat="51.7495536804199" lon="7.90794610977173">
    <ele>85</ele>
    <time>2007-11-05T13:19:46Z</time>
    </trkpt>
    <trkpt lat="51.7542743682861" lon="7.90519952774048">
    <ele>84</ele>
    <time>2007-11-05T13:21:33Z</time>
    </trkpt>
    <trkpt lat="51.7542743682861" lon="7.905113697052">
    <ele>84</ele>
    <time>2007-11-05T13:23:08Z</time>
    </trkpt>
    <trkpt lat="51.754424571991" lon="7.90494203567505">
    <ele>84</ele>
    <time>2007-11-05T13:23:23Z</time>
    </trkpt>
    <trkpt lat="51.7545747756958" lon="7.90468454360962">
    <ele>84</ele>
    <time>2007-11-05T13:23:51Z</time>
    </trkpt>
    <trkpt lat="51.7553043365479" lon="7.90238857269287">
    <ele>83</ele>
    <time>2007-11-05T13:24:25Z</time>
    </trkpt>
    <trkpt lat="51.7560338973999" lon="7.89884805679321">
    <ele>84</ele>
    <time>2007-11-05T13:25:10Z</time>
    </trkpt>
    <trkpt lat="51.7560982704163" lon="7.89719581604004">
    <ele>83</ele>
    <time>2007-11-05T13:34:31Z</time>
    </trkpt>
    <trkpt lat="51.7559909820557" lon="7.89565086364746">
    <ele>83</ele>
    <time>2007-11-05T13:35:27Z</time>
    </trkpt>
    <trkpt lat="51.7560124397278" lon="7.89505004882813">
    <ele>83</ele>
    <time>2007-11-05T13:35:35Z</time>
    </trkpt>
    <trkpt lat="51.7562484741211" lon="7.8937840461731">
    <ele>83</ele>
    <time>2007-11-05T13:35:53Z</time>
    </trkpt>
    <trkpt lat="51.7566132545471" lon="7.89303302764893">
    <ele>83</ele>
    <time>2007-11-05T13:36:07Z</time>
    </trkpt>
    <trkpt lat="51.7571067810059" lon="7.89238929748535">
    <ele>84</ele>
    <time>2007-11-05T13:36:20Z</time>
    </trkpt>
    <trkpt lat="51.7577719688416" lon="7.89123058319092">
    <ele>82</ele>
    <time>2007-11-05T13:36:38Z</time>
    </trkpt>
    <trkpt lat="51.7580509185791" lon="7.89035081863403">
    <ele>83</ele>
    <time>2007-11-05T13:36:58Z</time>
    </trkpt>
    <trkpt lat="51.7586302757263" lon="7.88917064666748">
    <ele>82</ele>
    <time>2007-11-05T13:39:31Z</time>
    </trkpt>
    <trkpt lat="51.7590594291687" lon="7.88867712020874">
    <ele>84</ele>
    <time>2007-11-05T13:39:46Z</time>
    </trkpt>
    <trkpt lat="51.7591238021851" lon="7.8886342048645">
    <ele>82</ele>
    <time>2007-11-05T13:40:44Z</time>
    </trkpt>
    <trkpt lat="51.7588448524475" lon="7.88775444030762">
    <ele>82</ele>
    <time>2007-11-05T13:57:45Z</time>
    </trkpt>
    <trkpt lat="51.7599821090698" lon="7.88693904876709">
    <ele>83</ele>
    <time>2007-11-05T14:01:34Z</time>
    </trkpt>
    <trkpt lat="51.7600464820862" lon="7.88698196411133">
    <ele>83</ele>
    <time>2007-11-05T14:01:43Z</time>
    </trkpt>
    <trkpt lat="51.7608404159546" lon="7.8861665725708">
    <ele>81</ele>
    <time>2007-11-05T14:04:18Z</time>
    </trkpt>
    <trkpt lat="51.7610335350037" lon="7.88573741912842">
    <ele>81</ele>
    <time>2007-11-05T14:04:25Z</time>
    </trkpt>
    <trkpt lat="51.7612910270691" lon="7.88541555404663">
    <ele>81</ele>
    <time>2007-11-05T14:04:33Z</time>
    </trkpt>
    <trkpt lat="51.7614931089876" lon="7.88544785011137">
    <ele>80</ele>
    <time>2007-11-05T14:04:57Z</time>
    </trkpt>
    <trkpt lat="51.7625999450684" lon="7.88502931594849">
    <ele>80</ele>
    <time>2007-11-05T14:05:05Z</time>
    </trkpt>
    <trkpt lat="51.7630290985107" lon="7.88492202758789">
    <ele>81</ele>
    <time>2007-11-05T14:05:22Z</time>
    </trkpt>
    <trkpt lat="51.7630505561829" lon="7.88498640060425">
    <ele>80</ele>
    <time>2007-11-05T14:05:52Z</time>
    </trkpt>
    <trkpt lat="51.7632436752319" lon="7.88490056991577">
    <ele>82</ele>
    <time>2007-11-05T14:10:49Z</time>
    </trkpt>
    <trkpt lat="51.7637586593628" lon="7.88479328155518">
    <ele>81</ele>
    <time>2007-11-05T14:11:56Z</time>
    </trkpt>
    <trkpt lat="51.7648530006409" lon="7.88481473922729">
    <ele>81</ele>
    <time>2007-11-05T14:12:19Z</time>
    </trkpt>
    <trkpt lat="51.7664194107056" lon="7.88367748260498">
    <ele>81</ele>
    <time>2007-11-05T14:14:23Z</time>
    </trkpt>
    <trkpt lat="51.7664837837219" lon="7.88365602493286">
    <ele>81</ele>
    <time>2007-11-05T14:14:28Z</time>
    </trkpt>
    <trkpt lat="51.7665266990662" lon="7.8838062286377">
    <ele>80</ele>
    <time>2007-11-05T14:16:01Z</time>
    </trkpt>
    <trkpt lat="51.7666554450989" lon="7.88421392440796">
    <ele>79</ele>
    <time>2007-11-05T14:18:29Z</time>
    </trkpt>
    <trkpt lat="51.7667412757874" lon="7.8841495513916">
    <ele>79</ele>
    <time>2007-11-05T14:22:39Z</time>
    </trkpt>
    <trkpt lat="51.7693161964417" lon="7.88228273391724">
    <ele>78</ele>
    <time>2007-11-05T14:24:09Z</time>
    </trkpt>
    <trkpt lat="51.7697882652283" lon="7.88151025772095">
    <ele>78</ele>
    <time>2007-11-05T14:24:27Z</time>
    </trkpt>
    <trkpt lat="51.7698740959167" lon="7.88131713867188">
    <ele>78</ele>
    <time>2007-11-05T14:24:39Z</time>
    </trkpt>
    <trkpt lat="51.7698526382446" lon="7.88118839263916">
    <ele>78</ele>
    <time>2007-11-05T14:27:51Z</time>
    </trkpt>
    <trkpt lat="51.7711945374005" lon="7.87799925098711">
    <ele>72</ele>
    <time>2007-11-05T14:28:54Z</time>
    </trkpt>
    <trkpt lat="51.7714190483093" lon="7.87747621536255">
    <ele>77</ele>
    <time>2007-11-05T14:29:58Z</time>
    </trkpt>
    <trkpt lat="51.7716336250305" lon="7.87593126296997">
    <ele>76</ele>
    <time>2007-11-05T14:30:19Z</time>
    </trkpt>
    <trkpt lat="51.7719340324402" lon="7.87492275238037">
    <ele>76</ele>
    <time>2007-11-05T14:30:34Z</time>
    </trkpt>
    <trkpt lat="51.773157119751" lon="7.87273406982422">
    <ele>76</ele>
    <time>2007-11-05T14:31:13Z</time>
    </trkpt>
    <trkpt lat="51.7731356620789" lon="7.87258386611938">
    <ele>76</ele>
    <time>2007-11-05T14:31:20Z</time>
    </trkpt>
    <trkpt lat="51.7715907096863" lon="7.87082433700562">
    <ele>77</ele>
    <time>2007-11-05T14:32:23Z</time>
    </trkpt>
    <trkpt lat="51.7715692520142" lon="7.87071704864502">
    <ele>77</ele>
    <time>2007-11-05T14:33:27Z</time>
    </trkpt>
    <trkpt lat="51.7721056938171" lon="7.87007331848145">
    <ele>76</ele>
    <time>2007-11-05T14:35:22Z</time>
    </trkpt>
    <trkpt lat="51.772255897522" lon="7.87009477615356">
    <ele>78</ele>
    <time>2007-11-05T14:35:49Z</time>
    </trkpt>
    <trkpt lat="51.772620677948" lon="7.86996603012085">
    <ele>76</ele>
    <time>2007-11-05T14:36:46Z</time>
    </trkpt>
    <trkpt lat="51.7730498313904" lon="7.86962270736694">
    <ele>77</ele>
    <time>2007-11-05T14:36:57Z</time>
    </trkpt>
    <trkpt lat="51.77659034729" lon="7.86591053009033">
    <ele>75</ele>
    <time>2007-11-05T14:38:21Z</time>
    </trkpt>
    <trkpt lat="51.7775130271912" lon="7.86389350891113">
    <ele>74</ele>
    <time>2007-11-05T14:41:51Z</time>
    </trkpt>
    <trkpt lat="51.7779636383057" lon="7.86320686340332">
    <ele>75</ele>
    <time>2007-11-05T14:42:06Z</time>
    </trkpt>
    <trkpt lat="51.7780227667944" lon="7.86314126742228">
    <ele>74</ele>
    <time>2007-11-05T14:42:16Z</time>
    </trkpt>
    <trkpt lat="51.7778992652893" lon="7.86286354064941">
    <ele>75</ele>
    <time>2007-11-05T14:48:46Z</time>
    </trkpt>
    <trkpt lat="51.7775130271912" lon="7.86224126815796">
    <ele>74</ele>
    <time>2007-11-05T14:48:59Z</time>
    </trkpt>
    <trkpt lat="51.7767834663391" lon="7.8617262840271">
    <ele>75</ele>
    <time>2007-11-05T14:49:16Z</time>
    </trkpt>
    <trkpt lat="51.7759680747986" lon="7.86153316497803">
    <ele>76</ele>
    <time>2007-11-05T14:49:36Z</time>
    </trkpt>
    <trkpt lat="51.7759466171265" lon="7.86134004592896">
    <ele>75</ele>
    <time>2007-11-05T14:49:41Z</time>
    </trkpt>
    <trkpt lat="51.7769765853882" lon="7.85516023635864">
    <ele>74</ele>
    <time>2007-11-05T14:51:14Z</time>
    </trkpt>
    <trkpt lat="51.7769980430603" lon="7.85355091094971">
    <ele>75</ele>
    <time>2007-11-05T14:53:38Z</time>
    </trkpt>
    <trkpt lat="51.7764713011259" lon="7.85135297047267">
    <ele>73</ele>
    <time>2007-11-05T14:54:10Z</time>
    </trkpt>
    <trkpt lat="51.7762470245361" lon="7.85039663314819">
    <ele>77</ele>
    <time>2007-11-05T14:54:42Z</time>
    </trkpt>
    <trkpt lat="51.7750453948975" lon="7.84713506698608">
    <ele>78</ele>
    <time>2007-11-05T14:55:39Z</time>
    </trkpt>
    <trkpt lat="51.775496006012" lon="7.84659862518311">
    <ele>77</ele>
    <time>2007-11-05T14:58:02Z</time>
    </trkpt>
    <trkpt lat="51.7760753631592" lon="7.84606218338013">
    <ele>76</ele>
    <time>2007-11-05T14:58:16Z</time>
    </trkpt>
    <trkpt lat="51.7761182785034" lon="7.84599781036377">
    <ele>75</ele>
    <time>2007-11-05T14:58:17Z</time>
    </trkpt>
    <trkpt lat="51.7768907546997" lon="7.84597635269165">
    <ele>74</ele>
    <time>2007-11-05T14:58:31Z</time>
    </trkpt>
    <trkpt lat="51.7778348922729" lon="7.84608364105225">
    <ele>74</ele>
    <time>2007-11-05T14:58:48Z</time>
    </trkpt>
    <trkpt lat="51.7779207229614" lon="7.84589052200317">
    <ele>74</ele>
    <time>2007-11-05T14:58:52Z</time>
    </trkpt>
    <trkpt lat="51.7779850959778" lon="7.84563302993774">
    <ele>74</ele>
    <time>2007-11-05T14:59:02Z</time>
    </trkpt>
    <trkpt lat="51.7779850959778" lon="7.84552574157715">
    <ele>74</ele>
    <time>2007-11-05T15:02:05Z</time>
    </trkpt>
    <trkpt lat="51.7779850959778" lon="7.84526824951172">
    <ele>74</ele>
    <time>2007-11-05T15:02:18Z</time>
    </trkpt>
    <trkpt lat="51.7779207229614" lon="7.845139503479">
    <ele>74</ele>
    <time>2007-11-05T15:04:32Z</time>
    </trkpt>
    <trkpt lat="51.7775774002075" lon="7.84490346908569">
    <ele>74</ele>
    <time>2007-11-05T15:04:46Z</time>
    </trkpt>
    <trkpt lat="51.7775774002075" lon="7.8447961807251">
    <ele>74</ele>
    <time>2007-11-05T15:05:00Z</time>
    </trkpt>
    <trkpt lat="51.7776203155518" lon="7.84445285797119">
    <ele>74</ele>
    <time>2007-11-05T15:05:38Z</time>
    </trkpt>
    <trkpt lat="51.7802166938782" lon="7.83514022827148">
    <ele>72</ele>
    <time>2007-11-05T15:07:41Z</time>
    </trkpt>
    <trkpt lat="51.7800235748291" lon="7.83391714096069">
    <ele>71</ele>
    <time>2007-11-05T15:07:57Z</time>
    </trkpt>
    <trkpt lat="51.7798948287964" lon="7.83353090286255">
    <ele>72</ele>
    <time>2007-11-05T15:08:04Z</time>
    </trkpt>
    <trkpt lat="51.7799592018127" lon="7.83290863037109">
    <ele>72</ele>
    <time>2007-11-05T15:08:13Z</time>
    </trkpt>
    <trkpt lat="51.7803239822388" lon="7.83157825469971">
    <ele>71</ele>
    <time>2007-11-05T15:08:31Z</time>
    </trkpt>
    <trkpt lat="51.7815256118774" lon="7.82076358795166">
    <ele>72</ele>
    <time>2007-11-05T15:10:51Z</time>
    </trkpt>
    <trkpt lat="51.7813754081726" lon="7.8177809715271">
    <ele>73</ele>
    <time>2007-11-05T15:11:47Z</time>
    </trkpt>
    <trkpt lat="51.7818474769592" lon="7.81696557998657">
    <ele>72</ele>
    <time>2007-11-05T15:12:49Z</time>
    </trkpt>
    <trkpt lat="51.782534122467" lon="7.81518459320068">
    <ele>72</ele>
    <time>2007-11-05T15:13:15Z</time>
    </trkpt>
    <trkpt lat="51.7826199531555" lon="7.81516313552856">
    <ele>72</ele>
    <time>2007-11-05T15:13:20Z</time>
    </trkpt>
    <trkpt lat="51.7833709716797" lon="7.81546354293823">
    <ele>70</ele>
    <time>2007-11-05T15:13:37Z</time>
    </trkpt>
    <trkpt lat="51.784336566925" lon="7.81559228897095">
    <ele>69</ele>
    <time>2007-11-05T15:13:55Z</time>
    </trkpt>
    <trkpt lat="51.7858815193176" lon="7.81494855880737">
    <ele>69</ele>
    <time>2007-11-05T15:14:26Z</time>
    </trkpt>
    <trkpt lat="51.7859673500061" lon="7.81503438949585">
    <ele>69</ele>
    <time>2007-11-05T15:18:40Z</time>
    </trkpt>
    <trkpt lat="51.7860746383667" lon="7.81492710113525">
    <ele>69</ele>
    <time>2007-11-05T15:18:46Z</time>
    </trkpt>
    <trkpt lat="51.7866539955139" lon="7.81460523605347">
    <ele>69</ele>
    <time>2007-11-05T15:19:02Z</time>
    </trkpt>
    <trkpt lat="51.7867612838745" lon="7.81458377838135">
    <ele>69</ele>
    <time>2007-11-05T15:19:04Z</time>
    </trkpt>
    <trkpt lat="51.7907978881915" lon="7.81631088396778">
    <ele>66</ele>
    <time>2007-11-05T15:20:30Z</time>
    </trkpt>
    <trkpt lat="51.7960095405579" lon="7.81855344772339">
    <ele>72</ele>
    <time>2007-11-05T15:21:57Z</time>
    </trkpt>
    <trkpt lat="51.7962884902954" lon="7.8186821937561">
    <ele>73</ele>
    <time>2007-11-05T15:22:06Z</time>
    </trkpt>
    <trkpt lat="51.7963314056396" lon="7.81857490539551">
    <ele>73</ele>
    <time>2007-11-05T15:22:15Z</time>
    </trkpt>
    <trkpt lat="51.7963771753722" lon="7.81765135883433">
    <ele>69</ele>
    <time>2007-11-05T15:24:44Z</time>
    </trkpt>
    <trkpt lat="51.796567440033" lon="7.81383275985718">
    <ele>70</ele>
    <time>2007-11-05T15:27:13Z</time>
    </trkpt>
    <trkpt lat="51.797468662262" lon="7.81121492385864">
    <ele>71</ele>
    <time>2007-11-05T15:27:52Z</time>
    </trkpt>
    <trkpt lat="51.7975544929504" lon="7.81067848205566">
    <ele>72</ele>
    <time>2007-11-05T15:28:00Z</time>
    </trkpt>
    <trkpt lat="51.7974042892456" lon="7.80930519104004">
    <ele>71</ele>
    <time>2007-11-05T15:28:17Z</time>
    </trkpt>
    <trkpt lat="51.7962026596069" lon="7.80391931533813">
    <ele>68</ele>
    <time>2007-11-05T15:36:03Z</time>
    </trkpt>
    <trkpt lat="51.7955589294434" lon="7.79597997665405">
    <ele>68</ele>
    <time>2007-11-05T15:37:41Z</time>
    </trkpt>
    <trkpt lat="51.7955803871155" lon="7.79572248458862">
    <ele>68</ele>
    <time>2007-11-05T15:37:44Z</time>
    </trkpt>
    <trkpt lat="51.7960739135742" lon="7.79342651367188">
    <ele>69</ele>
    <time>2007-11-05T15:38:14Z</time>
    </trkpt>
    <trkpt lat="51.7965459823608" lon="7.79213905334473">
    <ele>69</ele>
    <time>2007-11-05T15:38:33Z</time>
    </trkpt>
    <trkpt lat="51.7974901199341" lon="7.7908730506897">
    <ele>69</ele>
    <time>2007-11-05T15:38:56Z</time>
    </trkpt>
    <trkpt lat="51.7980480194092" lon="7.78969287872314">
    <ele>69</ele>
    <time>2007-11-05T15:39:14Z</time>
    </trkpt>
    <trkpt lat="51.7984771728516" lon="7.7882981300354">
    <ele>69</ele>
    <time>2007-11-05T15:39:34Z</time>
    </trkpt>
    <trkpt lat="51.7989706993103" lon="7.78411388397217">
    <ele>69</ele>
    <time>2007-11-05T15:40:26Z</time>
    </trkpt>
    <trkpt lat="51.7993783950806" lon="7.77407169342041">
    <ele>65</ele>
    <time>2007-11-05T15:42:29Z</time>
    </trkpt>
    <trkpt lat="51.7997860908508" lon="7.77265548706055">
    <ele>66</ele>
    <time>2007-11-05T15:42:49Z</time>
    </trkpt>
    <trkpt lat="51.8002152442932" lon="7.76995182037354">
    <ele>66</ele>
    <time>2007-11-05T15:43:27Z</time>
    </trkpt>
    <trkpt lat="51.8000435829163" lon="7.76926517486572">
    <ele>68</ele>
    <time>2007-11-05T15:46:13Z</time>
    </trkpt>
    <trkpt lat="51.7993998527527" lon="7.76859998703003">
    <ele>66</ele>
    <time>2007-11-05T15:46:28Z</time>
    </trkpt>
    <trkpt lat="51.7992925643921" lon="7.76825666427612">
    <ele>66</ele>
    <time>2007-11-05T15:46:33Z</time>
    </trkpt>
    <trkpt lat="51.7983055114746" lon="7.76102542877197">
    <ele>67</ele>
    <time>2007-11-05T15:48:07Z</time>
    </trkpt>
    <trkpt lat="51.7985025509814" lon="7.75528194687337">
    <ele>63</ele>
    <time>2007-11-05T15:48:50Z</time>
    </trkpt>
    <trkpt lat="51.79856300354" lon="7.75355815887451">
    <ele>66</ele>
    <time>2007-11-05T15:49:34Z</time>
    </trkpt>
    <trkpt lat="51.7997646331787" lon="7.74471759796143">
    <ele>63</ele>
    <time>2007-11-05T15:51:36Z</time>
    </trkpt>
    <trkpt lat="51.7997002601624" lon="7.74471759796143">
    <ele>65</ele>
    <time>2007-11-05T15:53:38Z</time>
    </trkpt>
    <trkpt lat="51.7993783950806" lon="7.74448156356812">
    <ele>66</ele>
    <time>2007-11-05T15:53:53Z</time>
    </trkpt>
    <trkpt lat="51.7986273765564" lon="7.74415969848633">
    <ele>66</ele>
    <time>2007-11-05T15:54:14Z</time>
    </trkpt>
    <trkpt lat="51.7982840538025" lon="7.74413824081421">
    <ele>66</ele>
    <time>2007-11-05T15:54:25Z</time>
    </trkpt>
    <trkpt lat="51.7978978157043" lon="7.74364471435547">
    <ele>66</ele>
    <time>2007-11-05T15:55:40Z</time>
    </trkpt>
    <trkpt lat="51.797833442688" lon="7.74368762969971">
    <ele>66</ele>
    <time>2007-11-05T15:55:56Z</time>
    </trkpt>
    <trkpt lat="51.7975330352783" lon="7.74340867996216">
    <ele>66</ele>
    <time>2007-11-05T15:56:32Z</time>
    </trkpt>
    <trkpt lat="51.7971467971802" lon="7.74212121963501">
    <ele>66</ele>
    <time>2007-11-05T15:57:02Z</time>
    </trkpt>
    <trkpt lat="51.7971682548523" lon="7.74205684661865">
    <ele>66</ele>
    <time>2007-11-05T15:57:17Z</time>
    </trkpt>
    <trkpt lat="51.7972755432129" lon="7.74184226989746">
    <ele>66</ele>
    <time>2007-11-05T15:57:55Z</time>
    </trkpt>
    <trkpt lat="51.7975974082947" lon="7.74162769317627">
    <ele>67</ele>
    <time>2007-11-05T15:58:45Z</time>
    </trkpt>
    <trkpt lat="51.7980758805359" lon="7.74105810312665">
    <ele>62</ele>
    <time>2007-11-05T15:59:16Z</time>
    </trkpt>
    <trkpt lat="51.7983913421631" lon="7.74066209793091">
    <ele>66</ele>
    <time>2007-11-05T15:59:48Z</time>
    </trkpt>
    <trkpt lat="51.7987132072449" lon="7.73988962173462">
    <ele>66</ele>
    <time>2007-11-05T16:00:04Z</time>
    </trkpt>
    <trkpt lat="51.7987990379334" lon="7.73980379104614">
    <ele>66</ele>
    <time>2007-11-05T16:00:07Z</time>
    </trkpt>
    <trkpt lat="51.7988419532776" lon="7.73961067199707">
    <ele>66</ele>
    <time>2007-11-05T16:00:13Z</time>
    </trkpt>
    <trkpt lat="51.7988634109497" lon="7.73873090744019">
    <ele>67</ele>
    <time>2007-11-05T16:00:29Z</time>
    </trkpt>
    <trkpt lat="51.7997646331787" lon="7.73452520370483">
    <ele>63</ele>
    <time>2007-11-06T08:54:31Z</time>
    </trkpt>
    <trkpt lat="51.8036699295044" lon="7.73197174072266">
    <ele>63</ele>
    <time>2007-11-06T08:56:08Z</time>
    </trkpt>
    <trkpt lat="51.8047857284546" lon="7.73184299468994">
    <ele>63</ele>
    <time>2007-11-06T08:56:29Z</time>
    </trkpt>
    <trkpt lat="51.8069314956665" lon="7.73210048675537">
    <ele>61</ele>
    <time>2007-11-06T08:57:09Z</time>
    </trkpt>
    <trkpt lat="51.8113946914673" lon="7.72941827774048">
    <ele>60</ele>
    <time>2007-11-06T08:58:45Z</time>
    </trkpt>
    <trkpt lat="51.8120813369751" lon="7.72956848144531">
    <ele>58</ele>
    <time>2007-11-06T08:58:59Z</time>
    </trkpt>
    <trkpt lat="51.8122959136963" lon="7.72991180419922">
    <ele>59</ele>
    <time>2007-11-06T08:59:05Z</time>
    </trkpt>
    <trkpt lat="51.8133044242859" lon="7.73658514022827">
    <ele>60</ele>
    <time>2007-11-06T09:00:23Z</time>
    </trkpt>
    <trkpt lat="51.8224668502808" lon="7.73302316665649">
    <ele>64</ele>
    <time>2007-11-06T09:03:43Z</time>
    </trkpt>
    <trkpt lat="51.8253421783447" lon="7.73199319839478">
    <ele>65</ele>
    <time>2007-11-06T09:04:54Z</time>
    </trkpt>
    <trkpt lat="51.8257713317871" lon="7.73154258728027">
    <ele>64</ele>
    <time>2007-11-06T09:05:06Z</time>
    </trkpt>
    <trkpt lat="51.8258357048035" lon="7.73128509521484">
    <ele>64</ele>
    <time>2007-11-06T09:05:10Z</time>
    </trkpt>
    <trkpt lat="51.8255996704102" lon="7.72901058197021">
    <ele>64</ele>
    <time>2007-11-06T09:11:33Z</time>
    </trkpt>
    <trkpt lat="51.8257284164429" lon="7.72853851318359">
    <ele>62</ele>
    <time>2007-11-06T09:11:49Z</time>
    </trkpt>
    <trkpt lat="51.8280243873596" lon="7.72718667984009">
    <ele>59</ele>
    <time>2007-11-06T09:12:40Z</time>
    </trkpt>
    <trkpt lat="51.8280243873596" lon="7.72682189941406">
    <ele>59</ele>
    <time>2007-11-06T09:12:46Z</time>
    </trkpt>
    <trkpt lat="51.8268871307373" lon="7.72353887557983">
    <ele>58</ele>
    <time>2007-11-06T09:13:33Z</time>
    </trkpt>
    <trkpt lat="51.8267369270325" lon="7.72184371948242">
    <ele>57</ele>
    <time>2007-11-06T09:13:56Z</time>
    </trkpt>
    <trkpt lat="51.8250632286072" lon="7.7168869972229">
    <ele>58</ele>
    <time>2007-11-06T09:15:22Z</time>
    </trkpt>
    <trkpt lat="51.823582649231" lon="7.71607160568237">
    <ele>57</ele>
    <time>2007-11-06T09:15:59Z</time>
    </trkpt>
    <trkpt lat="51.821973323822" lon="7.71242380142212">
    <ele>56</ele>
    <time>2007-11-06T09:17:06Z</time>
    </trkpt>
    <trkpt lat="51.8218016624451" lon="7.71173715591431">
    <ele>56</ele>
    <time>2007-11-06T09:17:19Z</time>
    </trkpt>
    <trkpt lat="51.8297624588013" lon="7.70394802093506">
    <ele>55</ele>
    <time>2007-11-06T09:20:30Z</time>
    </trkpt>
    <trkpt lat="51.8353414535522" lon="7.69877672195435">
    <ele>56</ele>
    <time>2007-11-06T09:22:41Z</time>
    </trkpt>
    <trkpt lat="51.8361353874207" lon="7.69856214523315">
    <ele>56</ele>
    <time>2007-11-06T09:22:58Z</time>
    </trkpt>
    <trkpt lat="51.8370580673218" lon="7.69854068756104">
    <ele>56</ele>
    <time>2007-11-06T09:23:18Z</time>
    </trkpt>
    <trkpt lat="51.8377216967878" lon="7.6988689165079">
    <ele>58</ele>
    <time>2007-11-06T09:27:02Z</time>
    </trkpt>
    <trkpt lat="51.8385171890259" lon="7.69927024841309">
    <ele>55</ele>
    <time>2007-11-06T09:30:47Z</time>
    </trkpt>
    <trkpt lat="51.8390536308289" lon="7.69948482513428">
    <ele>55</ele>
    <time>2007-11-06T09:37:05Z</time>
    </trkpt>
    <trkpt lat="51.83926820755" lon="7.69974231719971">
    <ele>55</ele>
    <time>2007-11-06T09:37:11Z</time>
    </trkpt>
    <trkpt lat="51.8396759033203" lon="7.70002126693726">
    <ele>56</ele>
    <time>2007-11-06T09:37:21Z</time>
    </trkpt>
    <trkpt lat="51.8400621414185" lon="7.7008581161499">
    <ele>56</ele>
    <time>2007-11-06T09:37:35Z</time>
    </trkpt>
    <trkpt lat="51.840312354952" lon="7.70246352972702">
    <ele>57</ele>
    <time>2007-11-06T09:38:47Z</time>
    </trkpt>
    <trkpt lat="51.8405556678772" lon="7.70396947860718">
    <ele>54</ele>
    <time>2007-11-06T09:40:00Z</time>
    </trkpt>
    <trkpt lat="51.8407702445984" lon="7.70457029342651">
    <ele>54</ele>
    <time>2007-11-06T09:40:09Z</time>
    </trkpt>
    <trkpt lat="51.8407702445984" lon="7.70504236221313">
    <ele>54</ele>
    <time>2007-11-06T09:40:15Z</time>
    </trkpt>
    <trkpt lat="51.8400406837463" lon="7.70888328552246">
    <ele>53</ele>
    <time>2007-11-06T09:41:02Z</time>
    </trkpt>
    <trkpt lat="51.8402692767898" lon="7.7091513357175">
    <ele>56</ele>
    <time>2007-11-06T09:44:55Z</time>
    </trkpt>
    <trkpt lat="51.8429953090856" lon="7.71206984489387">
    <ele>56</ele>
    <time>2007-11-06T09:46:51Z</time>
    </trkpt>
    <trkpt lat="51.8435597419739" lon="7.71265983581543">
    <ele>53</ele>
    <time>2007-11-06T09:48:48Z</time>
    </trkpt>
    <trkpt lat="51.8449330329895" lon="7.71360397338867">
    <ele>53</ele>
    <time>2007-11-06T09:49:21Z</time>
    </trkpt>
    <trkpt lat="51.8454051017761" lon="7.71429061889648">
    <ele>52</ele>
    <time>2007-11-06T09:49:42Z</time>
    </trkpt>
    <trkpt lat="51.8466067314148" lon="7.71671533584595">
    <ele>52</ele>
    <time>2007-11-06T09:52:35Z</time>
    </trkpt>
    <trkpt lat="51.8480443954468" lon="7.71843194961548">
    <ele>52</ele>
    <time>2007-11-06T09:53:08Z</time>
    </trkpt>
    <trkpt lat="51.8481945991516" lon="7.71871089935303">
    <ele>52</ele>
    <time>2007-11-06T09:53:17Z</time>
    </trkpt>
    <trkpt lat="51.8481731414795" lon="7.71864652633667">
    <ele>52</ele>
    <time>2007-11-06T09:54:00Z</time>
    </trkpt>
    <trkpt lat="51.8486022949219" lon="7.72062063217163">
    <ele>53</ele>
    <time>2007-11-06T09:55:03Z</time>
    </trkpt>
    <trkpt lat="51.8484091758728" lon="7.72220849990845">
    <ele>53</ele>
    <time>2007-11-06T09:55:22Z</time>
    </trkpt>
    <trkpt lat="51.8484306335449" lon="7.72255182266235">
    <ele>53</ele>
    <time>2007-11-06T09:55:26Z</time>
    </trkpt>
    <trkpt lat="51.8485164642334" lon="7.72287368774414">
    <ele>53</ele>
    <time>2007-11-06T09:55:30Z</time>
    </trkpt>
    <trkpt lat="51.8492031097412" lon="7.72388219833374">
    <ele>53</ele>
    <time>2007-11-06T09:55:47Z</time>
    </trkpt>
    <trkpt lat="51.8501257896423" lon="7.72454738616943">
    <ele>53</ele>
    <time>2007-11-06T09:56:06Z</time>
    </trkpt>
    <trkpt lat="51.8510270118713" lon="7.72476196289063">
    <ele>52</ele>
    <time>2007-11-06T09:56:23Z</time>
    </trkpt>
    <trkpt lat="51.8516707420349" lon="7.72469758987427">
    <ele>52</ele>
    <time>2007-11-06T09:56:35Z</time>
    </trkpt>
    <trkpt lat="51.8530440330505" lon="7.72392511367798">
    <ele>52</ele>
    <time>2007-11-06T09:57:08Z</time>
    </trkpt>
    <trkpt lat="51.853494644165" lon="7.72396802902222">
    <ele>51</ele>
    <time>2007-11-06T09:57:18Z</time>
    </trkpt>
    <trkpt lat="51.8543529510498" lon="7.72463321685791">
    <ele>53</ele>
    <time>2007-11-06T09:58:02Z</time>
    </trkpt>
    <trkpt lat="51.8550610542297" lon="7.72489070892334">
    <ele>50</ele>
    <time>2007-11-06T10:02:11Z</time>
    </trkpt>
    <trkpt lat="51.8578505516052" lon="7.72371053695679">
    <ele>50</ele>
    <time>2007-11-06T10:03:23Z</time>
    </trkpt>
    <trkpt lat="51.8583226203918" lon="7.72368907928467">
    <ele>48</ele>
    <time>2007-11-06T10:03:35Z</time>
    </trkpt>
    <trkpt lat="51.858344078064" lon="7.72368907928467">
    <ele>50</ele>
    <time>2007-11-06T10:06:34Z</time>
    </trkpt>
    <trkpt lat="51.8586874008179" lon="7.72388219833374">
    <ele>50</ele>
    <time>2007-11-06T10:06:46Z</time>
    </trkpt>
    <trkpt lat="51.8593311309814" lon="7.72459030151367">
    <ele>51</ele>
    <time>2007-11-06T10:07:05Z</time>
    </trkpt>
    <trkpt lat="51.8597817420959" lon="7.72566318511963">
    <ele>52</ele>
    <time>2007-11-06T10:07:24Z</time>
    </trkpt>
    <trkpt lat="51.8598890304565" lon="7.72632837295532">
    <ele>51</ele>
    <time>2007-11-06T10:07:33Z</time>
    </trkpt>
    <trkpt lat="51.8600177764893" lon="7.72650003433228">
    <ele>51</ele>
    <time>2007-11-06T10:07:37Z</time>
    </trkpt>
    <trkpt lat="51.8601036071777" lon="7.72654294967651">
    <ele>50</ele>
    <time>2007-11-06T10:07:39Z</time>
    </trkpt>
    <trkpt lat="51.8609404563904" lon="7.72759437561035">
    <ele>51</ele>
    <time>2007-11-06T10:08:11Z</time>
    </trkpt>
    <trkpt lat="51.8609619140625" lon="7.72765874862671">
    <ele>53</ele>
    <time>2007-11-06T10:10:00Z</time>
    </trkpt>
    <trkpt lat="51.8608117103577" lon="7.72804498672485">
    <ele>54</ele>
    <time>2007-11-06T10:10:12Z</time>
    </trkpt>
    <trkpt lat="51.8606185913086" lon="7.72883892059326">
    <ele>54</ele>
    <time>2007-11-06T10:10:25Z</time>
    </trkpt>
    <trkpt lat="51.8601679801941" lon="7.72971868515015">
    <ele>55</ele>
    <time>2007-11-06T10:10:44Z</time>
    </trkpt>
    <trkpt lat="51.8601250648499" lon="7.72976160049438">
    <ele>54</ele>
    <time>2007-11-06T10:13:53Z</time>
    </trkpt>
    <trkpt lat="51.8609189987183" lon="7.72993326187134">
    <ele>51</ele>
    <time>2007-11-06T10:14:22Z</time>
    </trkpt>
    <trkpt lat="51.8613052368164" lon="7.7297830581665">
    <ele>52</ele>
    <time>2007-11-06T10:14:34Z</time>
    </trkpt>
    <trkpt lat="51.8619918823242" lon="7.7297830581665">
    <ele>52</ele>
    <time>2007-11-06T10:14:53Z</time>
    </trkpt>
    <trkpt lat="51.8627643585205" lon="7.73038387298584">
    <ele>51</ele>
    <time>2007-11-06T10:15:13Z</time>
    </trkpt>
    <trkpt lat="51.8635582923889" lon="7.73068428039551">
    <ele>51</ele>
    <time>2007-11-06T10:15:32Z</time>
    </trkpt>
    <trkpt lat="51.8641349189809" lon="7.73059946758189">
    <ele>53</ele>
    <time>2007-11-06T10:18:04Z</time>
    </trkpt>
    <trkpt lat="51.8643307685852" lon="7.73055553436279">
    <ele>52</ele>
    <time>2007-11-06T10:20:37Z</time>
    </trkpt>
    <trkpt lat="51.8655323982239" lon="7.72971868515015">
    <ele>50</ele>
    <time>2007-11-06T10:21:09Z</time>
    </trkpt>
    <trkpt lat="51.8661975860596" lon="7.72986888885498">
    <ele>49</ele>
    <time>2007-11-06T10:21:26Z</time>
    </trkpt>
    <trkpt lat="51.866455078125" lon="7.73012638092041">
    <ele>51</ele>
    <time>2007-11-06T10:22:06Z</time>
    </trkpt>
    <trkpt lat="51.8670158610183" lon="7.73150862806471">
    <ele>54</ele>
    <time>2007-11-06T10:23:04Z</time>
    </trkpt>
    <trkpt lat="51.8672490119934" lon="7.73203611373901">
    <ele>53</ele>
    <time>2007-11-06T10:24:02Z</time>
    </trkpt>
    <trkpt lat="51.867527961731" lon="7.73175716400146">
    <ele>52</ele>
    <time>2007-11-06T10:24:18Z</time>
    </trkpt>
    <trkpt lat="51.8675065040588" lon="7.73167133331299">
    <ele>53</ele>
    <time>2007-11-06T10:24:29Z</time>
    </trkpt>
    <trkpt lat="51.8677639961243" lon="7.73119926452637">
    <ele>54</ele>
    <time>2007-11-06T10:29:10Z</time>
    </trkpt>
    <trkpt lat="51.8679785728455" lon="7.73096323013306">
    <ele>52</ele>
    <time>2007-11-06T10:31:19Z</time>
    </trkpt>
    <trkpt lat="51.8680214881897" lon="7.73055553436279">
    <ele>53</ele>
    <time>2007-11-06T10:32:11Z</time>
    </trkpt>
    <trkpt lat="51.8680644035339" lon="7.73046970367432">
    <ele>56</ele>
    <time>2007-11-06T10:32:17Z</time>
    </trkpt>
    <trkpt lat="51.8695449829102" lon="7.73081302642822">
    <ele>51</ele>
    <time>2007-11-06T10:36:33Z</time>
    </trkpt>
    <trkpt lat="51.869695186615" lon="7.73117780685425">
    <ele>52</ele>
    <time>2007-11-06T10:37:24Z</time>
    </trkpt>
    <trkpt lat="51.8704676628113" lon="7.73117780685425">
    <ele>51</ele>
    <time>2007-11-06T10:37:42Z</time>
    </trkpt>
    <trkpt lat="51.871132850647" lon="7.73175716400146">
    <ele>51</ele>
    <time>2007-11-06T10:37:58Z</time>
    </trkpt>
    <trkpt lat="51.8713688850403" lon="7.73216485977173">
    <ele>52</ele>
    <time>2007-11-06T10:38:05Z</time>
    </trkpt>
    <trkpt lat="51.8718409538269" lon="7.73386001586914">
    <ele>51</ele>
    <time>2007-11-06T10:39:41Z</time>
    </trkpt>
    <trkpt lat="51.8721413612366" lon="7.73443937301636">
    <ele>52</ele>
    <time>2007-11-06T10:39:54Z</time>
    </trkpt>
    <trkpt lat="51.8728065490723" lon="7.73512601852417">
    <ele>52</ele>
    <time>2007-11-06T10:40:10Z</time>
    </trkpt>
    <trkpt lat="51.8734931945801" lon="7.7353835105896">
    <ele>51</ele>
    <time>2007-11-06T10:40:24Z</time>
    </trkpt>
    <trkpt lat="51.8736433982849" lon="7.73536205291748">
    <ele>51</ele>
    <time>2007-11-06T10:40:27Z</time>
    </trkpt>
    <trkpt lat="51.8740940093994" lon="7.73512601852417">
    <ele>50</ele>
    <time>2007-11-06T10:40:37Z</time>
    </trkpt>
    <trkpt lat="51.8749094009399" lon="7.73405313491821">
    <ele>51</ele>
    <time>2007-11-06T10:41:00Z</time>
    </trkpt>
    <trkpt lat="51.8753170967102" lon="7.73308753967285">
    <ele>52</ele>
    <time>2007-11-06T10:41:16Z</time>
    </trkpt>
    <trkpt lat="51.8757033348084" lon="7.73177862167358">
    <ele>52</ele>
    <time>2007-11-06T10:41:37Z</time>
    </trkpt>
    <trkpt lat="51.8759393692017" lon="7.73122072219849">
    <ele>51</ele>
    <time>2007-11-06T10:41:47Z</time>
    </trkpt>
    <trkpt lat="51.8762397766113" lon="7.73085594177246">
    <ele>52</ele>
    <time>2007-11-06T10:41:56Z</time>
    </trkpt>
    <trkpt lat="51.8768191337585" lon="7.73057699203491">
    <ele>52</ele>
    <time>2007-11-06T10:47:08Z</time>
    </trkpt>
    <trkpt lat="51.8772912025452" lon="7.73055553436279">
    <ele>54</ele>
    <time>2007-11-06T10:51:05Z</time>
    </trkpt>
    <trkpt lat="51.8783211708069" lon="7.73104906082153">
    <ele>51</ele>
    <time>2007-11-06T10:51:30Z</time>
    </trkpt>
    <trkpt lat="51.8785357475281" lon="7.73094177246094">
    <ele>49</ele>
    <time>2007-11-06T10:51:35Z</time>
    </trkpt>
    <trkpt lat="51.8785786628723" lon="7.73083448410034">
    <ele>50</ele>
    <time>2007-11-06T10:51:37Z</time>
    </trkpt>
    <trkpt lat="51.8795442581177" lon="7.72946119308472">
    <ele>52</ele>
    <time>2007-11-06T10:52:05Z</time>
    </trkpt>
    <trkpt lat="51.8797159194946" lon="7.72950410842896">
    <ele>53</ele>
    <time>2007-11-06T10:52:10Z</time>
    </trkpt>
    <trkpt lat="51.8805742263794" lon="7.73074865341187">
    <ele>52</ele>
    <time>2007-11-06T10:52:35Z</time>
    </trkpt>
    <trkpt lat="51.8807244300842" lon="7.73070573806763">
    <ele>51</ele>
    <time>2007-11-06T10:52:40Z</time>
    </trkpt>
    <trkpt lat="51.8807458877563" lon="7.73061990737915">
    <ele>53</ele>
    <time>2007-11-06T10:52:43Z</time>
    </trkpt>
    <trkpt lat="51.8809819221497" lon="7.73014783859253">
    <ele>51</ele>
    <time>2007-11-06T10:54:19Z</time>
    </trkpt>
    <trkpt lat="51.8836641311646" lon="7.72834539413452">
    <ele>51</ele>
    <time>2007-11-06T10:55:31Z</time>
    </trkpt>
    <trkpt lat="51.884286403656" lon="7.72768020629883">
    <ele>52</ele>
    <time>2007-11-06T10:56:00Z</time>
    </trkpt>
    <trkpt lat="51.8843293190002" lon="7.72761583328247">
    <ele>52</ele>
    <time>2007-11-06T10:57:36Z</time>
    </trkpt>
    <trkpt lat="51.8853163719177" lon="7.72656440734863">
    <ele>50</ele>
    <time>2007-11-06T10:58:11Z</time>
    </trkpt>
    <trkpt lat="51.885724067688" lon="7.72589921951294">
    <ele>51</ele>
    <time>2007-11-06T10:58:32Z</time>
    </trkpt>
    <trkpt lat="51.8858098983765" lon="7.72570610046387">
    <ele>52</ele>
    <time>2007-11-06T11:00:09Z</time>
    </trkpt>
    <trkpt lat="51.8865394592285" lon="7.72467613220215">
    <ele>50</ele>
    <time>2007-11-06T11:01:49Z</time>
    </trkpt>
    <trkpt lat="51.8883848190308" lon="7.72343158721924">
    <ele>48</ele>
    <time>2007-11-06T11:02:42Z</time>
    </trkpt>
    <trkpt lat="51.8888354301453" lon="7.72255182266235">
    <ele>48</ele>
    <time>2007-11-06T11:03:00Z</time>
    </trkpt>
    <trkpt lat="51.8890714645386" lon="7.7213716506958">
    <ele>50</ele>
    <time>2007-11-06T11:03:20Z</time>
    </trkpt>
    <trkpt lat="51.8888783454895" lon="7.71914005279541">
    <ele>50</ele>
    <time>2007-11-06T11:03:54Z</time>
    </trkpt>
    <trkpt lat="51.8888998031616" lon="7.7184534072876">
    <ele>50</ele>
    <time>2007-11-06T11:04:04Z</time>
    </trkpt>
    <trkpt lat="51.8890285491943" lon="7.71804571151733">
    <ele>50</ele>
    <time>2007-11-06T11:04:11Z</time>
    </trkpt>
    <trkpt lat="51.8895649909973" lon="7.71740198135376">
    <ele>50</ele>
    <time>2007-11-06T11:04:29Z</time>
    </trkpt>
    <trkpt lat="51.8902516365051" lon="7.71708011627197">
    <ele>50</ele>
    <time>2007-11-06T11:04:48Z</time>
    </trkpt>
    <trkpt lat="51.8908953666687" lon="7.71701574325562">
    <ele>51</ele>
    <time>2007-11-06T11:07:04Z</time>
    </trkpt>
    <trkpt lat="51.8919897079468" lon="7.71735906600952">
    <ele>51</ele>
    <time>2007-11-06T11:07:34Z</time>
    </trkpt>
    <trkpt lat="51.892569065094" lon="7.7169942855835">
    <ele>50</ele>
    <time>2007-11-06T11:07:50Z</time>
    </trkpt>
    <trkpt lat="51.8926548957825" lon="7.71684408187866">
    <ele>51</ele>
    <time>2007-11-06T11:07:53Z</time>
    </trkpt>
    <trkpt lat="51.8928265571594" lon="7.71592140197754">
    <ele>51</ele>
    <time>2007-11-06T11:08:09Z</time>
    </trkpt>
    <trkpt lat="51.8928265571594" lon="7.71450519561768">
    <ele>52</ele>
    <time>2007-11-06T11:08:31Z</time>
    </trkpt>
    <trkpt lat="51.8929553031921" lon="7.71375417709351">
    <ele>51</ele>
    <time>2007-11-06T11:08:48Z</time>
    </trkpt>
    <trkpt lat="51.8929123878479" lon="7.7135181427002">
    <ele>54</ele>
    <time>2007-11-06T11:09:52Z</time>
    </trkpt>
    <trkpt lat="51.8932771682739" lon="7.71362543106079">
    <ele>54</ele>
    <time>2007-11-06T11:10:16Z</time>
    </trkpt>
    <trkpt lat="51.893298625946" lon="7.7135181427002">
    <ele>54</ele>
    <time>2007-11-06T11:10:34Z</time>
    </trkpt>
    <trkpt lat="51.893298625946" lon="7.71302461624146">
    <ele>50</ele>
    <time>2007-11-06T11:11:44Z</time>
    </trkpt>
    <trkpt lat="51.893105506897" lon="7.71225214004517">
    <ele>51</ele>
    <time>2007-11-06T11:12:01Z</time>
    </trkpt>
    <trkpt lat="51.8928694725037" lon="7.71162986755371">
    <ele>51</ele>
    <time>2007-11-06T11:12:13Z</time>
    </trkpt>
    <trkpt lat="51.8928050994873" lon="7.7112865447998">
    <ele>50</ele>
    <time>2007-11-06T11:12:18Z</time>
    </trkpt>
    <trkpt lat="51.8929767608643" lon="7.71036386489868">
    <ele>51</ele>
    <time>2007-11-06T11:12:33Z</time>
    </trkpt>
    <trkpt lat="51.8934273719788" lon="7.70991325378418">
    <ele>50</ele>
    <time>2007-11-06T11:12:46Z</time>
    </trkpt>
    <trkpt lat="51.8936419487" lon="7.70987033843994">
    <ele>50</ele>
    <time>2007-11-06T11:12:51Z</time>
    </trkpt>
    <trkpt lat="51.8945860862732" lon="7.71019220352173">
    <ele>49</ele>
    <time>2007-11-06T11:13:14Z</time>
    </trkpt>
    <trkpt lat="51.8954014778137" lon="7.71017074584961">
    <ele>49</ele>
    <time>2007-11-06T11:13:34Z</time>
    </trkpt>
    <trkpt lat="51.8957877159119" lon="7.70997762680054">
    <ele>48</ele>
    <time>2007-11-06T11:13:43Z</time>
    </trkpt>
    <trkpt lat="51.8965172767639" lon="7.7093768119812">
    <ele>50</ele>
    <time>2007-11-06T11:14:03Z</time>
    </trkpt>
    <trkpt lat="51.897246837616" lon="7.70933389663696">
    <ele>50</ele>
    <time>2007-11-06T11:14:21Z</time>
    </trkpt>
    <trkpt lat="51.8977618217468" lon="7.70907640457153">
    <ele>50</ele>
    <time>2007-11-06T11:14:34Z</time>
    </trkpt>
    <trkpt lat="51.8996071815491" lon="7.70716667175293">
    <ele>50</ele>
    <time>2007-11-06T11:15:26Z</time>
    </trkpt>
    <trkpt lat="51.8998861312866" lon="7.70703792572021">
    <ele>50</ele>
    <time>2007-11-06T11:15:33Z</time>
    </trkpt>
    <trkpt lat="51.9006586074829" lon="7.70725250244141">
    <ele>52</ele>
    <time>2007-11-06T11:15:52Z</time>
    </trkpt>
    <trkpt lat="51.9014525413513" lon="7.70708084106445">
    <ele>50</ele>
    <time>2007-11-06T11:16:12Z</time>
    </trkpt>
    <trkpt lat="51.9020318984985" lon="7.70652294158936">
    <ele>51</ele>
    <time>2007-11-06T11:16:33Z</time>
    </trkpt>
    <trkpt lat="51.9021391868591" lon="7.70663022994995">
    <ele>51</ele>
    <time>2007-11-06T11:16:38Z</time>
    </trkpt>
    <trkpt lat="51.9023323059082" lon="7.70714521408081">
    <ele>53</ele>
    <time>2007-11-06T11:16:55Z</time>
    </trkpt>
    <trkpt lat="51.9025039672852" lon="7.70718812942505">
    <ele>54</ele>
    <time>2007-11-06T11:17:11Z</time>
    </trkpt>
    <trkpt lat="51.9025468826294" lon="7.70714521408081">
    <ele>55</ele>
    <time>2007-11-06T11:19:28Z</time>
    </trkpt>
    <trkpt lat="51.9028902053833" lon="7.70695209503174">
    <ele>52</ele>
    <time>2007-11-06T11:21:10Z</time>
    </trkpt>
    <trkpt lat="51.9032764434814" lon="7.70686626434326">
    <ele>53</ele>
    <time>2007-11-06T11:21:20Z</time>
    </trkpt>
    <trkpt lat="51.9038128852844" lon="7.70654439926147">
    <ele>53</ele>
    <time>2007-11-06T11:21:34Z</time>
    </trkpt>
    <trkpt lat="51.9040489196777" lon="7.70663022994995">
    <ele>53</ele>
    <time>2007-11-06T11:21:40Z</time>
    </trkpt>
    <trkpt lat="51.9041347503662" lon="7.70671606063843">
    <ele>53</ele>
    <time>2007-11-06T11:21:42Z</time>
    </trkpt>
    <trkpt lat="51.9044137001038" lon="7.70669460296631">
    <ele>52</ele>
    <time>2007-11-06T11:21:49Z</time>
    </trkpt>
    <trkpt lat="51.9047355651855" lon="7.70654439926147">
    <ele>53</ele>
    <time>2007-11-06T11:21:58Z</time>
    </trkpt>
    <trkpt lat="51.9051432609558" lon="7.70660877227783">
    <ele>52</ele>
    <time>2007-11-06T11:22:08Z</time>
    </trkpt>
    <trkpt lat="51.9054651260376" lon="7.70632982254028">
    <ele>52</ele>
    <time>2007-11-06T11:22:19Z</time>
    </trkpt>
    <trkpt lat="51.9068384170532" lon="7.70607233047485">
    <ele>53</ele>
    <time>2007-11-06T11:22:58Z</time>
    </trkpt>
    <trkpt lat="51.9076108932495" lon="7.70615816116333">
    <ele>52</ele>
    <time>2007-11-06T11:23:17Z</time>
    </trkpt>
    <trkpt lat="51.9095420837402" lon="7.70744562149048">
    <ele>51</ele>
    <time>2007-11-06T11:24:01Z</time>
    </trkpt>
    <trkpt lat="51.9096493721008" lon="7.7074670791626">
    <ele>50</ele>
    <time>2007-11-06T11:24:03Z</time>
    </trkpt>
    <trkpt lat="51.909863948822" lon="7.707359790802">
    <ele>49</ele>
    <time>2007-11-06T11:24:08Z</time>
    </trkpt>
    <trkpt lat="51.9106578826904" lon="7.70671606063843">
    <ele>49</ele>
    <time>2007-11-06T11:24:26Z</time>
    </trkpt>
    <trkpt lat="51.9113874435425" lon="7.70639419555664">
    <ele>54</ele>
    <time>2007-11-06T11:24:53Z</time>
    </trkpt>
    <trkpt lat="51.9115805625916" lon="7.70632982254028">
    <ele>56</ele>
    <time>2007-11-06T11:28:24Z</time>
    </trkpt>
    <trkpt lat="51.9114542924299" lon="7.70448464848571">
    <ele>48</ele>
    <time>2007-11-06T11:30:38Z</time>
    </trkpt>
    <trkpt lat="51.9113659858704" lon="7.70349740982056">
    <ele>54</ele>
    <time>2007-11-06T11:32:52Z</time>
    </trkpt>
    <trkpt lat="51.9114089012146" lon="7.7034330368042">
    <ele>53</ele>
    <time>2007-11-06T11:33:01Z</time>
    </trkpt>
    <trkpt lat="51.9138121604919" lon="7.7019739151001">
    <ele>52</ele>
    <time>2007-11-06T11:35:51Z</time>
    </trkpt>
    <trkpt lat="51.9146704673767" lon="7.70042896270752">
    <ele>53</ele>
    <time>2007-11-06T11:36:27Z</time>
    </trkpt>
    <trkpt lat="51.9146919250488" lon="7.70034313201904">
    <ele>52</ele>
    <time>2007-11-06T11:38:54Z</time>
    </trkpt>
    <trkpt lat="51.9144344329834" lon="7.69886255264282">
    <ele>53</ele>
    <time>2007-11-06T11:41:03Z</time>
    </trkpt>
    <trkpt lat="51.914541721344" lon="7.69866943359375">
    <ele>53</ele>
    <time>2007-11-06T11:41:08Z</time>
    </trkpt>
    <trkpt lat="51.9149923324585" lon="7.69806861877441">
    <ele>52</ele>
    <time>2007-11-06T11:41:27Z</time>
    </trkpt>
    <trkpt lat="51.91561460495" lon="7.6979398727417">
    <ele>51</ele>
    <time>2007-11-06T11:42:20Z</time>
    </trkpt>
    <trkpt lat="51.9161510467529" lon="7.69746780395508">
    <ele>51</ele>
    <time>2007-11-06T11:42:36Z</time>
    </trkpt>
    <trkpt lat="51.9162583351135" lon="7.69731760025024">
    <ele>51</ele>
    <time>2007-11-06T11:42:48Z</time>
    </trkpt>
    <trkpt lat="51.9164085388184" lon="7.69723176956177">
    <ele>51</ele>
    <time>2007-11-06T11:45:27Z</time>
    </trkpt>
    <trkpt lat="51.916515827179" lon="7.69733905792236">
    <ele>52</ele>
    <time>2007-11-06T11:45:30Z</time>
    </trkpt>
    <trkpt lat="51.9166660308838" lon="7.69781112670898">
    <ele>51</ele>
    <time>2007-11-06T11:45:39Z</time>
    </trkpt>
    <trkpt lat="51.9178462028503" lon="7.69712448120117">
    <ele>52</ele>
    <time>2007-11-06T11:46:13Z</time>
    </trkpt>
    <trkpt lat="51.9179105758667" lon="7.69714593887329">
    <ele>52</ele>
    <time>2007-11-06T11:46:19Z</time>
    </trkpt>
    <trkpt lat="51.918683052063" lon="7.70111560821533">
    <ele>53</ele>
    <time>2007-11-06T11:47:30Z</time>
    </trkpt>
    <trkpt lat="51.9187474250793" lon="7.70109415054321">
    <ele>53</ele>
    <time>2007-11-06T11:47:41Z</time>
    </trkpt>
    <trkpt lat="51.9188117980957" lon="7.70111560821533">
    <ele>53</ele>
    <time>2007-11-06T11:49:20Z</time>
    </trkpt>
    <trkpt lat="51.9188117980957" lon="7.70083665847778">
    <ele>54</ele>
    <time>2007-11-06T11:54:02Z</time>
    </trkpt>
    <trkpt lat="51.9187688827515" lon="7.70077228546143">
    <ele>54</ele>
    <time>2007-11-06T11:54:20Z</time>
    </trkpt>
    <trkpt lat="51.9185757637024" lon="7.70006418228149">
    <ele>50</ele>
    <time>2007-11-06T11:55:16Z</time>
    </trkpt>
    <trkpt lat="51.9185328483582" lon="7.6999568939209">
    <ele>49</ele>
    <time>2007-11-06T11:55:29Z</time>
    </trkpt>
    <trkpt lat="51.9185757637024" lon="7.69978523254395">
    <ele>51</ele>
    <time>2007-11-06T12:00:29Z</time>
    </trkpt>
    <trkpt lat="51.9186615943909" lon="7.69963502883911">
    <ele>51</ele>
    <time>2007-11-06T12:00:37Z</time>
    </trkpt>
    <trkpt lat="51.919219493866" lon="7.69935607910156">
    <ele>51</ele>
    <time>2007-11-06T12:00:52Z</time>
    </trkpt>
    <trkpt lat="51.9202065467834" lon="7.69836902618408">
    <ele>51</ele>
    <time>2007-11-06T12:01:18Z</time>
    </trkpt>
    <trkpt lat="51.9207215309143" lon="7.69804716110229">
    <ele>48</ele>
    <time>2007-11-06T12:01:33Z</time>
    </trkpt>
    <trkpt lat="51.9210004806519" lon="7.69811153411865">
    <ele>51</ele>
    <time>2007-11-06T12:01:43Z</time>
    </trkpt>
    <trkpt lat="51.9214081764221" lon="7.69832611083984">
    <ele>52</ele>
    <time>2007-11-06T12:01:57Z</time>
    </trkpt>
    <trkpt lat="51.9215154647827" lon="7.69806861877441">
    <ele>49</ele>
    <time>2007-11-06T12:04:40Z</time>
    </trkpt>
    <trkpt lat="51.9216656684875" lon="7.69815444946289">
    <ele>47</ele>
    <time>2007-11-06T12:04:46Z</time>
    </trkpt>
    <trkpt lat="51.9222235679626" lon="7.69817590713501">
    <ele>49</ele>
    <time>2007-11-06T12:05:01Z</time>
    </trkpt>
    <trkpt lat="51.9223952293396" lon="7.69929170608521">
    <ele>53</ele>
    <time>2007-11-06T12:05:42Z</time>
    </trkpt>
    <trkpt lat="51.9229102134705" lon="7.6993989944458">
    <ele>53</ele>
    <time>2007-11-06T12:09:13Z</time>
    </trkpt>
    <trkpt lat="51.9232320785522" lon="7.6995062828064">
    <ele>53</ele>
    <time>2007-11-06T12:09:24Z</time>
    </trkpt>
    <trkpt lat="51.9232964515686" lon="7.69963502883911">
    <ele>54</ele>
    <time>2007-11-06T12:09:29Z</time>
    </trkpt>
    <trkpt lat="51.9238972663879" lon="7.69989252090454">
    <ele>53</ele>
    <time>2007-11-06T12:10:00Z</time>
    </trkpt>
    <trkpt lat="51.9245727054462" lon="7.697974384341">
    <ele>49</ele>
    <time>2007-11-06T12:12:14Z</time>
    </trkpt>
    <trkpt lat="51.9259142875671" lon="7.69420623779297">
    <ele>53</ele>
    <time>2007-11-06T12:14:28Z</time>
    </trkpt>
    <trkpt lat="51.9272232055664" lon="7.69171714782715">
    <ele>55</ele>
    <time>2007-11-06T12:15:23Z</time>
    </trkpt>
    <trkpt lat="51.9272446632385" lon="7.69165277481079">
    <ele>55</ele>
    <time>2007-11-06T12:15:34Z</time>
    </trkpt>
    <trkpt lat="51.9272875785828" lon="7.69156694412231">
    <ele>56</ele>
    <time>2007-11-06T12:16:23Z</time>
    </trkpt>
    <trkpt lat="51.9273090362549" lon="7.69150257110596">
    <ele>56</ele>
    <time>2007-11-06T12:16:26Z</time>
    </trkpt>
    <trkpt lat="51.9278454780579" lon="7.6923394203186">
    <ele>56</ele>
    <time>2007-11-06T12:19:42Z</time>
    </trkpt>
    <trkpt lat="51.9281458854675" lon="7.6924467086792">
    <ele>55</ele>
    <time>2007-11-06T12:19:49Z</time>
    </trkpt>
    <trkpt lat="51.9289612770081" lon="7.69240379333496">
    <ele>55</ele>
    <time>2007-11-06T12:20:11Z</time>
    </trkpt>
    <trkpt lat="51.9290900230408" lon="7.69461393356323">
    <ele>56</ele>
    <time>2007-11-06T12:20:43Z</time>
    </trkpt>
    <trkpt lat="51.929304599762" lon="7.69484996795654">
    <ele>54</ele>
    <time>2007-11-06T12:20:50Z</time>
    </trkpt>
    <trkpt lat="51.9306135177612" lon="7.69467830657959">
    <ele>55</ele>
    <time>2007-11-06T12:21:25Z</time>
    </trkpt>
    <trkpt lat="51.9310641288757" lon="7.69538640975952">
    <ele>54</ele>
    <time>2007-11-06T12:21:41Z</time>
    </trkpt>
    <trkpt lat="51.9314289093018" lon="7.69680261611938">
    <ele>53</ele>
    <time>2007-11-06T12:22:06Z</time>
    </trkpt>
    <trkpt lat="51.9314503669739" lon="7.69733905792236">
    <ele>53</ele>
    <time>2007-11-06T12:22:26Z</time>
    </trkpt>
    <trkpt lat="51.9315361976624" lon="7.6978325843811">
    <ele>51</ele>
    <time>2007-11-06T12:23:24Z</time>
    </trkpt>
    <trkpt lat="51.9317722320557" lon="7.6984977722168">
    <ele>50</ele>
    <time>2007-11-06T12:23:37Z</time>
    </trkpt>
    <trkpt lat="51.9321799278259" lon="7.69871234893799">
    <ele>50</ele>
    <time>2007-11-06T12:23:51Z</time>
    </trkpt>
    <trkpt lat="51.932544708252" lon="7.69905567169189">
    <ele>49</ele>
    <time>2007-11-06T12:25:48Z</time>
    </trkpt>
    <trkpt lat="51.9326090812683" lon="7.6993989944458">
    <ele>50</ele>
    <time>2007-11-06T12:25:56Z</time>
    </trkpt>
    <trkpt lat="51.9331884384155" lon="7.69961357116699">
    <ele>48</ele>
    <time>2007-11-06T12:26:29Z</time>
    </trkpt>
    <trkpt lat="51.9336605072021" lon="7.69959211349487">
    <ele>48</ele>
    <time>2007-11-06T12:26:44Z</time>
    </trkpt>
    <trkpt lat="51.9338536262512" lon="7.69946336746216">
    <ele>50</ele>
    <time>2007-11-06T12:27:38Z</time>
    </trkpt>
    <trkpt lat="51.9352698326111" lon="7.69907712936401">
    <ele>48</ele>
    <time>2007-11-06T12:28:16Z</time>
    </trkpt>
    <trkpt lat="51.935977935791" lon="7.69905567169189">
    <ele>49</ele>
    <time>2007-11-06T12:28:33Z</time>
    </trkpt>
    <trkpt lat="51.9378232955933" lon="7.69811153411865">
    <ele>49</ele>
    <time>2007-11-06T12:32:02Z</time>
    </trkpt>
    <trkpt lat="51.9387245178223" lon="7.6959228515625">
    <ele>51</ele>
    <time>2007-11-06T12:32:39Z</time>
    </trkpt>
    <trkpt lat="51.9395399093628" lon="7.69469976425171">
    <ele>49</ele>
    <time>2007-11-06T12:33:04Z</time>
    </trkpt>
    <trkpt lat="51.9402480125427" lon="7.69397020339966">
    <ele>49</ele>
    <time>2007-11-06T12:33:24Z</time>
    </trkpt>
    <trkpt lat="51.9409775733948" lon="7.69354104995728">
    <ele>48</ele>
    <time>2007-11-06T12:33:44Z</time>
    </trkpt>
    <trkpt lat="51.9414067268372" lon="7.69341230392456">
    <ele>49</ele>
    <time>2007-11-06T12:33:54Z</time>
    </trkpt>
    <trkpt lat="51.9416213035584" lon="7.69324064254761">
    <ele>49</ele>
    <time>2007-11-06T12:33:59Z</time>
    </trkpt>
    <trkpt lat="51.9417285919189" lon="7.69311189651489">
    <ele>49</ele>
    <time>2007-11-06T12:34:02Z</time>
    </trkpt>
    <trkpt lat="51.9422650337219" lon="7.69201755523682">
    <ele>49</ele>
    <time>2007-11-06T12:34:21Z</time>
    </trkpt>
    <trkpt lat="51.9424152374268" lon="7.69152402877808">
    <ele>49</ele>
    <time>2007-11-06T12:34:28Z</time>
    </trkpt>
    <trkpt lat="51.9423508644104" lon="7.69023656845093">
    <ele>49</ele>
    <time>2007-11-06T12:34:45Z</time>
    </trkpt>
    <trkpt lat="51.9423294067383" lon="7.69015073776245">
    <ele>48</ele>
    <time>2007-11-06T12:34:52Z</time>
    </trkpt>
    <trkpt lat="51.942286491394" lon="7.69004344940186">
    <ele>49</ele>
    <time>2007-11-06T12:35:19Z</time>
    </trkpt>
    <trkpt lat="51.9421148300171" lon="7.68912076950073">
    <ele>50</ele>
    <time>2007-11-06T12:35:38Z</time>
    </trkpt>
    <trkpt lat="51.9422650337219" lon="7.68817663192749">
    <ele>50</ele>
    <time>2007-11-06T12:37:03Z</time>
    </trkpt>
    <trkpt lat="51.9425794328077" lon="7.68777570535618">
    <ele>47</ele>
    <time>2007-11-06T12:38:28Z</time>
    </trkpt>
    <trkpt lat="51.9429731369019" lon="7.68727540969849">
    <ele>46</ele>
    <time>2007-11-06T12:39:53Z</time>
    </trkpt>
    <trkpt lat="51.943187713623" lon="7.68718957901001">
    <ele>45</ele>
    <time>2007-11-06T12:39:58Z</time>
    </trkpt>
    <trkpt lat="51.943359375" lon="7.68721103668213">
    <ele>45</ele>
    <time>2007-11-06T12:40:02Z</time>
    </trkpt>
    <trkpt lat="51.9440460205078" lon="7.68787622451782">
    <ele>45</ele>
    <time>2007-11-06T12:40:18Z</time>
    </trkpt>
    <trkpt lat="51.9443893432617" lon="7.68836975097656">
    <ele>46</ele>
    <time>2007-11-06T12:40:27Z</time>
    </trkpt>
    <trkpt lat="51.9445610046387" lon="7.68849849700928">
    <ele>45</ele>
    <time>2007-11-06T12:40:31Z</time>
    </trkpt>
    <trkpt lat="51.9452261924744" lon="7.68830537796021">
    <ele>44</ele>
    <time>2007-11-06T12:40:45Z</time>
    </trkpt>
    <trkpt lat="51.9461703300476" lon="7.68738269805908">
    <ele>44</ele>
    <time>2007-11-06T12:41:09Z</time>
    </trkpt>
    <trkpt lat="51.9462561607361" lon="7.68733978271484">
    <ele>43</ele>
    <time>2007-11-06T12:41:11Z</time>
    </trkpt>
    <trkpt lat="51.9465136528015" lon="7.68727540969849">
    <ele>45</ele>
    <time>2007-11-06T12:41:18Z</time>
    </trkpt>
    <trkpt lat="51.9467711448669" lon="7.68757581710815">
    <ele>44</ele>
    <time>2007-11-06T12:41:31Z</time>
    </trkpt>
    <trkpt lat="51.9468784332275" lon="7.6875114440918">
    <ele>46</ele>
    <time>2007-11-06T12:41:36Z</time>
    </trkpt>
    <trkpt lat="51.9472002983093" lon="7.68676042556763">
    <ele>47</ele>
    <time>2007-11-06T12:41:55Z</time>
    </trkpt>
    <trkpt lat="51.9473075866699" lon="7.68624544143677">
    <ele>48</ele>
    <time>2007-11-06T12:42:07Z</time>
    </trkpt>
    <trkpt lat="51.9475221633911" lon="7.68573045730591">
    <ele>50</ele>
    <time>2007-11-06T12:42:23Z</time>
    </trkpt>
    <trkpt lat="51.9475650787354" lon="7.68598794937134">
    <ele>50</ele>
    <time>2007-11-06T12:43:52Z</time>
    </trkpt>
    <trkpt lat="51.9475865364075" lon="7.68699645996094">
    <ele>49</ele>
    <time>2007-11-06T12:44:08Z</time>
    </trkpt>
    <trkpt lat="51.9475650787354" lon="7.68721103668213">
    <ele>48</ele>
    <time>2007-11-06T12:44:11Z</time>
    </trkpt>
    <trkpt lat="51.9479513168335" lon="7.68802642822266">
    <ele>50</ele>
    <time>2007-11-06T12:44:29Z</time>
    </trkpt>
    <trkpt lat="51.9482731819153" lon="7.68847703933716">
    <ele>51</ele>
    <time>2007-11-06T12:45:34Z</time>
    </trkpt>
    <trkpt lat="51.948573589325" lon="7.68871307373047">
    <ele>51</ele>
    <time>2007-11-06T12:45:49Z</time>
    </trkpt>
    <trkpt lat="51.9487023353577" lon="7.68875598907471">
    <ele>52</ele>
    <time>2007-11-06T12:45:53Z</time>
    </trkpt>
    <trkpt lat="51.9490671157837" lon="7.68920660018921">
    <ele>52</ele>
    <time>2007-11-06T12:46:07Z</time>
    </trkpt>
    <trkpt lat="51.9493460655212" lon="7.69038677215576">
    <ele>50</ele>
    <time>2007-11-06T12:46:28Z</time>
    </trkpt>
    <trkpt lat="51.9495391845703" lon="7.6918888092041">
    <ele>49</ele>
    <time>2007-11-06T12:46:51Z</time>
    </trkpt>
    <trkpt lat="51.9498610496521" lon="7.69261837005615">
    <ele>47</ele>
    <time>2007-11-06T12:47:05Z</time>
    </trkpt>
    <trkpt lat="51.9499683380127" lon="7.69332647323608">
    <ele>48</ele>
    <time>2007-11-06T12:47:15Z</time>
    </trkpt>
    <trkpt lat="51.9501185417175" lon="7.69379854202271">
    <ele>51</ele>
    <time>2007-11-06T12:47:26Z</time>
    </trkpt>
    <trkpt lat="51.9500970840454" lon="7.69530057907104">
    <ele>47</ele>
    <time>2007-11-06T12:47:51Z</time>
    </trkpt>
    <trkpt lat="51.9499683380127" lon="7.6959228515625">
    <ele>44</ele>
    <time>2007-11-06T12:51:41Z</time>
    </trkpt>
    <trkpt lat="51.9498825073242" lon="7.69605159759521">
    <ele>44</ele>
    <time>2007-11-06T12:53:21Z</time>
    </trkpt>
    <trkpt lat="51.9494533538818" lon="7.69643783569336">
    <ele>44</ele>
    <time>2007-11-06T12:53:36Z</time>
    </trkpt>
    <trkpt lat="51.9493675231934" lon="7.69663095474243">
    <ele>43</ele>
    <time>2007-11-06T12:53:40Z</time>
    </trkpt>
    <trkpt lat="51.9493889808655" lon="7.69688844680786">
    <ele>43</ele>
    <time>2007-11-06T12:53:44Z</time>
    </trkpt>
    <trkpt lat="51.9504189491272" lon="7.69873380661011">
    <ele>44</ele>
    <time>2007-11-06T12:54:21Z</time>
    </trkpt>
    <trkpt lat="51.9506764411926" lon="7.69937753677368">
    <ele>43</ele>
    <time>2007-11-06T12:54:32Z</time>
    </trkpt>
    <trkpt lat="51.9508051872253" lon="7.69959211349487">
    <ele>43</ele>
    <time>2007-11-06T12:54:36Z</time>
    </trkpt>
    <trkpt lat="51.9509339332581" lon="7.69969940185547">
    <ele>43</ele>
    <time>2007-11-06T12:54:39Z</time>
    </trkpt>
    <trkpt lat="51.9517707824707" lon="7.6998496055603">
    <ele>41</ele>
    <time>2007-11-06T12:54:58Z</time>
    </trkpt>
    <trkpt lat="51.9526934623718" lon="7.69963502883911">
    <ele>41</ele>
    <time>2007-11-06T12:55:18Z</time>
    </trkpt>
    <trkpt lat="51.9530367851257" lon="7.69972085952759">
    <ele>42</ele>
    <time>2007-11-06T12:55:29Z</time>
    </trkpt>
    <trkpt lat="51.9542813301086" lon="7.70045042037964">
    <ele>47</ele>
    <time>2007-11-06T12:58:38Z</time>
    </trkpt>
    <trkpt lat="51.9543886184692" lon="7.70062208175659">
    <ele>49</ele>
    <time>2007-11-06T12:59:01Z</time>
    </trkpt>
    <trkpt lat="51.954517364502" lon="7.7009654045105">
    <ele>47</ele>
    <time>2007-11-06T13:01:55Z</time>
    </trkpt>
    <trkpt lat="51.9545388221741" lon="7.70115852355957">
    <ele>46</ele>
    <time>2007-11-06T13:01:58Z</time>
    </trkpt>
    <trkpt lat="51.9552898406982" lon="7.70323991775513">
    <ele>45</ele>
    <time>2007-11-06T13:02:30Z</time>
    </trkpt>
    <trkpt lat="51.9557404518127" lon="7.70409822463989">
    <ele>44</ele>
    <time>2007-11-06T13:02:48Z</time>
    </trkpt>
    <trkpt lat="51.9558262825012" lon="7.70411968231201">
    <ele>44</ele>
    <time>2007-11-06T13:02:50Z</time>
    </trkpt>
    <trkpt lat="51.9559121131897" lon="7.70396947860718">
    <ele>44</ele>
    <time>2007-11-06T13:02:53Z</time>
    </trkpt>
    <trkpt lat="51.9565343856812" lon="7.7034330368042">
    <ele>44</ele>
    <time>2007-11-06T13:03:14Z</time>
    </trkpt>
    <trkpt lat="51.9570518244836" lon="7.7033040734523">
    <ele>47</ele>
    <time>2007-11-06T13:03:28Z</time>
    </trkpt>
    <trkpt lat="51.957585811615" lon="7.70315408706665">
    <ele>45</ele>
    <time>2007-11-06T13:03:41Z</time>
    </trkpt>
    <trkpt lat="51.9581651687622" lon="7.70341157913208">
    <ele>44</ele>
    <time>2007-11-06T13:03:57Z</time>
    </trkpt>
    <trkpt lat="51.9587445259094" lon="7.70394802093506">
    <ele>44</ele>
    <time>2007-11-06T13:04:12Z</time>
    </trkpt>
    <trkpt lat="51.9590449333191" lon="7.70411968231201">
    <ele>44</ele>
    <time>2007-11-06T13:04:19Z</time>
    </trkpt>
    <trkpt lat="51.9591307640076" lon="7.70422697067261">
    <ele>45</ele>
    <time>2007-11-06T13:04:24Z</time>
    </trkpt>
    <trkpt lat="51.9592380523682" lon="7.7044415473938">
    <ele>44</ele>
    <time>2007-11-06T13:04:28Z</time>
    </trkpt>
    <trkpt lat="51.959388256073" lon="7.70461320877075">
    <ele>45</ele>
    <time>2007-11-06T13:04:32Z</time>
    </trkpt>
    <trkpt lat="51.9607400894165" lon="7.70504236221313">
    <ele>46</ele>
    <time>2007-11-06T13:05:06Z</time>
    </trkpt>
    <trkpt lat="51.9617486000061" lon="7.70459175109863">
    <ele>45</ele>
    <time>2007-11-06T13:05:36Z</time>
    </trkpt>
    <trkpt lat="51.962456703186" lon="7.70289659500122">
    <ele>45</ele>
    <time>2007-11-06T13:06:08Z</time>
    </trkpt>
    <trkpt lat="51.9625639915466" lon="7.70220994949341">
    <ele>46</ele>
    <time>2007-11-06T13:06:18Z</time>
    </trkpt>
    <trkpt lat="51.9628858566284" lon="7.70156621932983">
    <ele>49</ele>
    <time>2007-11-06T13:06:39Z</time>
    </trkpt>
    <trkpt lat="51.9632077217102" lon="7.70135164260864">
    <ele>48</ele>
    <time>2007-11-06T13:06:56Z</time>
    </trkpt>
    <trkpt lat="51.9633793830872" lon="7.70139455795288">
    <ele>46</ele>
    <time>2007-11-06T13:07:10Z</time>
    </trkpt>
    <trkpt lat="51.9634866714478" lon="7.70148038864136">
    <ele>47</ele>
    <time>2007-11-06T13:09:05Z</time>
    </trkpt>
    <trkpt lat="51.9635081291199" lon="7.70154476165771">
    <ele>47</ele>
    <time>2007-11-06T13:09:09Z</time>
    </trkpt>
    <trkpt lat="51.9635725021362" lon="7.7018666267395">
    <ele>46</ele>
    <time>2007-11-06T13:09:22Z</time>
    </trkpt>
    <trkpt lat="51.963357925415" lon="7.70214557647705">
    <ele>46</ele>
    <time>2007-11-06T13:09:36Z</time>
    </trkpt>
    <trkpt lat="51.963164806366" lon="7.70227432250977">
    <ele>47</ele>
    <time>2007-11-06T13:09:52Z</time>
    </trkpt>
    <trkpt lat="51.9630146026611" lon="7.70255327224731">
    <ele>46</ele>
    <time>2007-11-06T13:10:48Z</time>
    </trkpt>
    <trkpt lat="51.9630575180054" lon="7.70414113998413">
    <ele>44</ele>
    <time>2007-11-06T13:11:38Z</time>
    </trkpt>
    <trkpt lat="51.9631004333496" lon="7.70431280136108">
    <ele>45</ele>
    <time>2007-11-06T13:17:15Z</time>
    </trkpt>
    <trkpt lat="51.9631433486938" lon="7.70435571670532">
    <ele>44</ele>
    <time>2007-11-06T13:17:25Z</time>
    </trkpt>
    <trkpt lat="51.9639801979065" lon="7.70467758178711">
    <ele>44</ele>
    <time>2007-11-06T13:19:23Z</time>
    </trkpt>
    <trkpt lat="51.9642162322998" lon="7.70517110824585">
    <ele>44</ele>
    <time>2007-11-06T13:19:35Z</time>
    </trkpt>
    <trkpt lat="51.9641947746277" lon="7.70538568496704">
    <ele>45</ele>
    <time>2007-11-06T13:19:45Z</time>
    </trkpt>
    <trkpt lat="51.9642376899719" lon="7.70560026168823">
    <ele>47</ele>
    <time>2007-11-06T13:21:10Z</time>
    </trkpt>
    <trkpt lat="51.9644737243652" lon="7.70581483840942">
    <ele>48</ele>
    <time>2007-11-06T13:21:23Z</time>
    </trkpt>
    <trkpt lat="51.9650316238403" lon="7.70594358444214">
    <ele>48</ele>
    <time>2007-11-06T13:21:43Z</time>
    </trkpt>
    <trkpt lat="51.965503692627" lon="7.70570755004883">
    <ele>47</ele>
    <time>2007-11-06T13:21:59Z</time>
    </trkpt>
    <trkpt lat="51.9658255577087" lon="7.70570755004883">
    <ele>47</ele>
    <time>2007-11-06T13:22:09Z</time>
    </trkpt>
    <trkpt lat="51.9659113883972" lon="7.70577192306519">
    <ele>47</ele>
    <time>2007-11-06T13:22:22Z</time>
    </trkpt>
    <trkpt lat="51.9659757614136" lon="7.70572900772095">
    <ele>45</ele>
    <time>2007-11-06T13:24:22Z</time>
    </trkpt>
    <trkpt lat="51.9659757614136" lon="7.70557880401611">
    <ele>43</ele>
    <time>2007-11-06T13:24:25Z</time>
    </trkpt>
    <trkpt lat="51.9659972190857" lon="7.7054500579834">
    <ele>42</ele>
    <time>2007-11-06T13:24:27Z</time>
    </trkpt>
    <trkpt lat="51.9662547111511" lon="7.70474195480347">
    <ele>42</ele>
    <time>2007-11-06T13:24:47Z</time>
    </trkpt>
    <trkpt lat="51.9664478302002" lon="7.70459175109863">
    <ele>42</ele>
    <time>2007-11-06T13:25:58Z</time>
    </trkpt>
    <trkpt lat="51.9668126106262" lon="7.70497798919678">
    <ele>43</ele>
    <time>2007-11-06T13:26:09Z</time>
    </trkpt>
    <trkpt lat="51.9672632217407" lon="7.70512819290161">
    <ele>43</ele>
    <time>2007-11-06T13:26:23Z</time>
    </trkpt>
    <trkpt lat="51.9679069519043" lon="7.70373344421387">
    <ele>43</ele>
    <time>2007-11-06T13:26:53Z</time>
    </trkpt>
    <trkpt lat="51.9681215286255" lon="7.70345449447632">
    <ele>43</ele>
    <time>2007-11-06T13:27:01Z</time>
    </trkpt>
    <trkpt lat="51.9688081741333" lon="7.70336866378784">
    <ele>42</ele>
    <time>2007-11-06T13:27:19Z</time>
    </trkpt>
    <trkpt lat="51.9688940048218" lon="7.70339012145996">
    <ele>43</ele>
    <time>2007-11-06T13:27:21Z</time>
    </trkpt>
    <trkpt lat="51.9690656661987" lon="7.70369052886963">
    <ele>42</ele>
    <time>2007-11-06T13:27:29Z</time>
    </trkpt>
    <trkpt lat="51.9695591926575" lon="7.70369052886963">
    <ele>41</ele>
    <time>2007-11-06T13:27:43Z</time>
    </trkpt>
    <trkpt lat="51.9701600074768" lon="7.70396947860718">
    <ele>44</ele>
    <time>2007-11-06T13:28:02Z</time>
    </trkpt>
    <trkpt lat="51.9702458381653" lon="7.70407676696777">
    <ele>45</ele>
    <time>2007-11-06T13:28:07Z</time>
    </trkpt>
    <trkpt lat="51.9726920127869" lon="7.70257472991943">
    <ele>42</ele>
    <time>2007-11-06T13:29:14Z</time>
    </trkpt>
    <trkpt lat="51.9727349281311" lon="7.7025318145752">
    <ele>43</ele>
    <time>2007-11-06T13:29:25Z</time>
    </trkpt>
    <trkpt lat="51.9727349281311" lon="7.70244598388672">
    <ele>42</ele>
    <time>2007-11-06T13:30:49Z</time>
    </trkpt>
    <trkpt lat="51.9727563858032" lon="7.70233869552612">
    <ele>42</ele>
    <time>2007-11-06T13:30:53Z</time>
    </trkpt>
    <trkpt lat="51.9735074043274" lon="7.70042896270752">
    <ele>42</ele>
    <time>2007-11-06T13:31:35Z</time>
    </trkpt>
    <trkpt lat="51.973614692688" lon="7.70047187805176">
    <ele>42</ele>
    <time>2007-11-06T13:31:39Z</time>
    </trkpt>
    <trkpt lat="51.9739365577698" lon="7.70113706588745">
    <ele>43</ele>
    <time>2007-11-06T13:31:56Z</time>
    </trkpt>
    <trkpt lat="51.9740009307861" lon="7.70117998123169">
    <ele>43</ele>
    <time>2007-11-06T13:32:41Z</time>
    </trkpt>
    <trkpt lat="51.9743227958679" lon="7.70100831985474">
    <ele>46</ele>
    <time>2007-11-06T13:33:01Z</time>
    </trkpt>
    <trkpt lat="51.9742584228516" lon="7.70047187805176">
    <ele>44</ele>
    <time>2007-11-06T13:33:37Z</time>
    </trkpt>
    <trkpt lat="51.9740009307861" lon="7.69999980926514">
    <ele>42</ele>
    <time>2007-11-06T13:33:52Z</time>
    </trkpt>
    <trkpt lat="51.9740009307861" lon="7.69954919815063">
    <ele>41</ele>
    <time>2007-11-06T13:34:02Z</time>
    </trkpt>
    <trkpt lat="51.973979473114" lon="7.69946336746216">
    <ele>41</ele>
    <time>2007-11-06T13:34:36Z</time>
    </trkpt>
    <trkpt lat="51.9740438461304" lon="7.69935607910156">
    <ele>40</ele>
    <time>2007-11-06T13:35:07Z</time>
    </trkpt>
    <trkpt lat="51.9742369651794" lon="7.69912004470825">
    <ele>40</ele>
    <time>2007-11-06T13:35:15Z</time>
    </trkpt>
    <trkpt lat="51.9743227958679" lon="7.69907712936401">
    <ele>41</ele>
    <time>2007-11-06T13:35:18Z</time>
    </trkpt>
    <trkpt lat="51.9744086265564" lon="7.6995062828064">
    <ele>43</ele>
    <time>2007-11-06T13:35:30Z</time>
    </trkpt>
    <trkpt lat="51.9744515419006" lon="7.69997835159302">
    <ele>43</ele>
    <time>2007-11-06T13:35:48Z</time>
    </trkpt>
    <trkpt lat="51.9746232032776" lon="7.70032167434692">
    <ele>44</ele>
    <time>2007-11-06T13:36:56Z</time>
    </trkpt>
    <trkpt lat="51.9750308990479" lon="7.70010709762573">
    <ele>44</ele>
    <time>2007-11-06T13:37:14Z</time>
    </trkpt>
    <trkpt lat="51.9755887985229" lon="7.70012855529785">
    <ele>45</ele>
    <time>2007-11-06T13:37:31Z</time>
    </trkpt>
    <trkpt lat="51.9770050048828" lon="7.70109415054321">
    <ele>49</ele>
    <time>2007-11-06T13:38:13Z</time>
    </trkpt>
    <trkpt lat="51.9776916503906" lon="7.70133018493652">
    <ele>49</ele>
    <time>2007-11-06T13:38:31Z</time>
    </trkpt>
    <trkpt lat="51.9783568382263" lon="7.70128726959229">
    <ele>46</ele>
    <time>2007-11-06T13:38:48Z</time>
    </trkpt>
    <trkpt lat="51.9788289070129" lon="7.7009654045105">
    <ele>45</ele>
    <time>2007-11-06T13:39:00Z</time>
    </trkpt>
    <trkpt lat="51.9799876213074" lon="7.700514793396">
    <ele>44</ele>
    <time>2007-11-06T13:39:23Z</time>
    </trkpt>
    <trkpt lat="51.9807171821594" lon="7.70079374313354">
    <ele>45</ele>
    <time>2007-11-06T13:39:40Z</time>
    </trkpt>
    <trkpt lat="51.9812750816345" lon="7.70124435424805">
    <ele>47</ele>
    <time>2007-11-06T13:40:01Z</time>
    </trkpt>
    <trkpt lat="51.9813179969788" lon="7.70120143890381">
    <ele>47</ele>
    <time>2007-11-06T13:42:10Z</time>
    </trkpt>
    <trkpt lat="51.9820261001587" lon="7.69959211349487">
    <ele>48</ele>
    <time>2007-11-06T13:42:51Z</time>
    </trkpt>
    <trkpt lat="51.9820261001587" lon="7.69944190979004">
    <ele>48</ele>
    <time>2007-11-06T13:43:53Z</time>
    </trkpt>
    <trkpt lat="51.9819831848145" lon="7.69937753677368">
    <ele>48</ele>
    <time>2007-11-06T13:43:57Z</time>
    </trkpt>
    <trkpt lat="51.9808459281921" lon="7.69851922988892">
    <ele>47</ele>
    <time>2007-11-06T13:45:12Z</time>
    </trkpt>
    <trkpt lat="51.9808459281921" lon="7.69836902618408">
    <ele>46</ele>
    <time>2007-11-06T13:45:23Z</time>
    </trkpt>
    <trkpt lat="51.9809532165527" lon="7.69809007644653">
    <ele>45</ele>
    <time>2007-11-06T13:46:06Z</time>
    </trkpt>
    <trkpt lat="51.9813394546509" lon="7.69755363464355">
    <ele>47</ele>
    <time>2007-11-06T13:46:25Z</time>
    </trkpt>
    <trkpt lat="51.9814682006836" lon="7.69639492034912">
    <ele>47</ele>
    <time>2007-11-06T13:46:44Z</time>
    </trkpt>
    <trkpt lat="51.9814252853394" lon="7.69521474838257">
    <ele>46</ele>
    <time>2007-11-06T13:47:02Z</time>
    </trkpt>
    <trkpt lat="51.9815325737" lon="7.69416332244873">
    <ele>46</ele>
    <time>2007-11-06T13:47:17Z</time>
    </trkpt>
    <trkpt lat="51.9828414916992" lon="7.6934552192688">
    <ele>46</ele>
    <time>2007-11-06T13:47:55Z</time>
    </trkpt>
    <trkpt lat="51.9830346107483" lon="7.69321918487549">
    <ele>46</ele>
    <time>2007-11-06T13:48:03Z</time>
    </trkpt>
    <trkpt lat="51.9832706451416" lon="7.69304752349854">
    <ele>45</ele>
    <time>2007-11-06T13:48:08Z</time>
    </trkpt>
    <trkpt lat="51.9844722747803" lon="7.69330501556396">
    <ele>41</ele>
    <time>2007-11-06T13:48:37Z</time>
    </trkpt>
    <trkpt lat="51.9845366477966" lon="7.69330501556396">
    <ele>41</ele>
    <time>2007-11-06T13:48:39Z</time>
    </trkpt>
    <trkpt lat="51.9841074943542" lon="7.69171714782715">
    <ele>41</ele>
    <time>2007-11-06T13:48:52Z</time>
    </trkpt>
    <trkpt lat="51.9841933250427" lon="7.6915454864502">
    <ele>41</ele>
    <time>2007-11-06T13:48:56Z</time>
    </trkpt>
    <trkpt lat="51.9845366477966" lon="7.69141674041748">
    <ele>44</ele>
    <time>2007-11-06T13:49:07Z</time>
    </trkpt>
    <trkpt lat="51.984601020813" lon="7.69135236740112">
    <ele>45</ele>
    <time>2007-11-06T13:49:12Z</time>
    </trkpt>
    <trkpt lat="51.9852533922916" lon="7.69111207874608">
    <ele>50</ele>
    <time>2007-11-06T13:49:34Z</time>
    </trkpt>
    <trkpt lat="51.9855880737305" lon="7.69096612930298">
    <ele>46</ele>
    <time>2007-11-06T13:49:57Z</time>
    </trkpt>
    <trkpt lat="51.9855880737305" lon="7.69096612930298">
    <ele>47</ele>
    <time>2007-11-06T13:56:52Z</time>
    </trkpt>
    <trkpt lat="51.9856739044189" lon="7.69094467163086">
    <ele>47</ele>
    <time>2007-11-06T13:56:57Z</time>
    </trkpt>
    <trkpt lat="51.9861030578613" lon="7.69038677215576">
    <ele>47</ele>
    <time>2007-11-06T13:57:15Z</time>
    </trkpt>
    <trkpt lat="51.9863176345825" lon="7.68989324569702">
    <ele>46</ele>
    <time>2007-11-06T13:57:27Z</time>
    </trkpt>
    <trkpt lat="51.9863820075989" lon="7.68995761871338">
    <ele>46</ele>
    <time>2007-11-06T13:57:33Z</time>
    </trkpt>
    <trkpt lat="51.9875836372375" lon="7.69339084625244">
    <ele>41</ele>
    <time>2007-11-06T13:58:25Z</time>
    </trkpt>
    <trkpt lat="51.9884419441223" lon="7.69459247589111">
    <ele>42</ele>
    <time>2007-11-06T13:58:45Z</time>
    </trkpt>
    <trkpt lat="51.9891500473022" lon="7.69527912139893">
    <ele>44</ele>
    <time>2007-11-06T13:59:03Z</time>
    </trkpt>
    <trkpt lat="51.9892144203186" lon="7.69530057907104">
    <ele>45</ele>
    <time>2007-11-06T13:59:14Z</time>
    </trkpt>
    <trkpt lat="51.9893431663513" lon="7.69527912139893">
    <ele>42</ele>
    <time>2007-11-06T14:03:09Z</time>
    </trkpt>
    <trkpt lat="51.9901371002197" lon="7.69201755523682">
    <ele>46</ele>
    <time>2007-11-06T14:04:44Z</time>
    </trkpt>
    <trkpt lat="51.990180015564" lon="7.69206047058105">
    <ele>44</ele>
    <time>2007-11-06T14:47:01Z</time>
    </trkpt>
    <trkpt lat="51.9914889335632" lon="7.69276857376099">
    <ele>53</ele>
    <time>2007-11-06T14:53:14Z</time>
    </trkpt>
    <trkpt lat="51.9921326637268" lon="7.69279003143311">
    <ele>52</ele>
    <time>2007-11-06T14:53:33Z</time>
    </trkpt>
    <trkpt lat="51.9938157629507" lon="7.69161282334087">
    <ele>52</ele>
    <time>2007-11-06T14:54:31Z</time>
    </trkpt>
    <trkpt lat="51.9944071769714" lon="7.69285440444946">
    <ele>51</ele>
    <time>2007-11-06T14:56:31Z</time>
    </trkpt>
    <trkpt lat="51.9947504997253" lon="7.69302606582642">
    <ele>50</ele>
    <time>2007-11-06T14:57:22Z</time>
    </trkpt>
    <trkpt lat="51.9953083992004" lon="7.69296169281006">
    <ele>51</ele>
    <time>2007-11-06T14:57:41Z</time>
    </trkpt>
    <trkpt lat="51.9962096214294" lon="7.69218921661377">
    <ele>51</ele>
    <time>2007-11-06T14:58:11Z</time>
    </trkpt>
    <trkpt lat="51.9962739944458" lon="7.69206047058105">
    <ele>51</ele>
    <time>2007-11-06T14:58:29Z</time>
    </trkpt>
    <trkpt lat="51.9964027404785" lon="7.69201755523682">
    <ele>50</ele>
    <time>2007-11-06T14:59:37Z</time>
    </trkpt>
    <trkpt lat="51.9964241981506" lon="7.69148111343384">
    <ele>50</ele>
    <time>2007-11-06T14:59:49Z</time>
    </trkpt>
    <trkpt lat="51.9964456558228" lon="7.691330909729">
    <ele>50</ele>
    <time>2007-11-06T15:00:01Z</time>
    </trkpt>
    <trkpt lat="51.9965529441834" lon="7.69120216369629">
    <ele>50</ele>
    <time>2007-11-06T15:01:04Z</time>
    </trkpt>
    <trkpt lat="51.9970035552979" lon="7.69083738327026">
    <ele>49</ele>
    <time>2007-11-06T15:01:16Z</time>
    </trkpt>
    <trkpt lat="51.9971966743469" lon="7.69075155258179">
    <ele>49</ele>
    <time>2007-11-06T15:01:20Z</time>
    </trkpt>
    <trkpt lat="51.9975399971008" lon="7.69081592559814">
    <ele>49</ele>
    <time>2007-11-06T15:01:27Z</time>
    </trkpt>
    <trkpt lat="51.9980978965759" lon="7.69066572189331">
    <ele>44</ele>
    <time>2007-11-06T15:01:38Z</time>
    </trkpt>
    <trkpt lat="51.9987416267395" lon="7.69025802612305">
    <ele>50</ele>
    <time>2007-11-06T15:01:52Z</time>
    </trkpt>
    <trkpt lat="51.9995784759521" lon="7.69000053405762">
    <ele>51</ele>
    <time>2007-11-06T15:02:15Z</time>
    </trkpt>
    <trkpt lat="52.0041918754578" lon="7.68575191497803">
    <ele>50</ele>
    <time>2007-11-06T15:03:56Z</time>
    </trkpt>
    <trkpt lat="52.0043849945068" lon="7.68592357635498">
    <ele>51</ele>
    <time>2007-11-06T15:04:02Z</time>
    </trkpt>
    <trkpt lat="52.0052003860474" lon="7.68821954727173">
    <ele>52</ele>
    <time>2007-11-06T15:04:33Z</time>
    </trkpt>
    <trkpt lat="52.0059299468994" lon="7.68922805786133">
    <ele>50</ele>
    <time>2007-11-06T15:04:51Z</time>
    </trkpt>
    <trkpt lat="52.0074963569641" lon="7.69034385681152">
    <ele>49</ele>
    <time>2007-11-06T15:05:23Z</time>
    </trkpt>
    <trkpt lat="52.0099639892578" lon="7.69139528274536">
    <ele>48</ele>
    <time>2007-11-06T15:06:08Z</time>
    </trkpt>
    <trkpt lat="52.0120882987976" lon="7.6933479309082">
    <ele>43</ele>
    <time>2007-11-06T15:06:50Z</time>
    </trkpt>
    <trkpt lat="52.0121955871582" lon="7.69362688064575">
    <ele>43</ele>
    <time>2007-11-06T15:06:54Z</time>
    </trkpt>
    <trkpt lat="52.0120453834534" lon="7.69510746002197">
    <ele>43</ele>
    <time>2007-11-06T15:07:21Z</time>
    </trkpt>
    <trkpt lat="52.0127964019775" lon="7.6973819732666">
    <ele>43</ele>
    <time>2007-11-06T15:08:05Z</time>
    </trkpt>
    <trkpt lat="52.012882232666" lon="7.69744634628296">
    <ele>44</ele>
    <time>2007-11-06T15:12:22Z</time>
    </trkpt>
    <trkpt lat="52.0131397247314" lon="7.69731760025024">
    <ele>44</ele>
    <time>2007-11-06T15:12:37Z</time>
    </trkpt>
    <trkpt lat="52.0132255554199" lon="7.69684553146362">
    <ele>43</ele>
    <time>2007-11-06T15:13:07Z</time>
    </trkpt>
    <trkpt lat="52.0132040977478" lon="7.69641637802124">
    <ele>43</ele>
    <time>2007-11-06T15:16:13Z</time>
    </trkpt>
    <trkpt lat="52.013418674469" lon="7.69457101821899">
    <ele>41</ele>
    <time>2007-11-06T15:16:48Z</time>
    </trkpt>
    <trkpt lat="52.0141696929932" lon="7.69268274307251">
    <ele>43</ele>
    <time>2007-11-06T15:17:32Z</time>
    </trkpt>
    <trkpt lat="52.0145988464355" lon="7.69225358963013">
    <ele>42</ele>
    <time>2007-11-06T15:17:47Z</time>
    </trkpt>
    <trkpt lat="52.0149207115173" lon="7.69210338592529">
    <ele>41</ele>
    <time>2007-11-06T15:17:56Z</time>
    </trkpt>
    <trkpt lat="52.0150923728943" lon="7.69176006317139">
    <ele>41</ele>
    <time>2007-11-06T15:18:06Z</time>
    </trkpt>
    <trkpt lat="52.0151352882385" lon="7.6914381980896">
    <ele>41</ele>
    <time>2007-11-06T15:21:10Z</time>
    </trkpt>
    <trkpt lat="52.0152425765991" lon="7.6909875869751">
    <ele>41</ele>
    <time>2007-11-06T15:21:21Z</time>
    </trkpt>
    <trkpt lat="52.0153498649597" lon="7.69100904464722">
    <ele>41</ele>
    <time>2007-11-06T15:21:26Z</time>
    </trkpt>
    <trkpt lat="52.0158219337463" lon="7.69141674041748">
    <ele>41</ele>
    <time>2007-11-06T15:21:43Z</time>
    </trkpt>
    <trkpt lat="52.016122341156" lon="7.69115924835205">
    <ele>43</ele>
    <time>2007-11-06T15:21:55Z</time>
    </trkpt>
    <trkpt lat="52.0165944099426" lon="7.69030094146729">
    <ele>48</ele>
    <time>2007-11-06T15:24:19Z</time>
    </trkpt>
    <trkpt lat="52.0167875289917" lon="7.69023656845093">
    <ele>48</ele>
    <time>2007-11-06T15:25:22Z</time>
    </trkpt>
    <trkpt lat="52.0168304443359" lon="7.69019365310669">
    <ele>48</ele>
    <time>2007-11-06T15:25:37Z</time>
    </trkpt>
    <trkpt lat="52.0168089866638" lon="7.68856287002563">
    <ele>47</ele>
    <time>2007-11-06T15:26:11Z</time>
    </trkpt>
    <trkpt lat="52.0168519020081" lon="7.68845558166504">
    <ele>47</ele>
    <time>2007-11-06T15:26:13Z</time>
    </trkpt>
    <trkpt lat="52.0205640792847" lon="7.68819808959961">
    <ele>48</ele>
    <time>2007-11-06T15:27:34Z</time>
    </trkpt>
    <trkpt lat="52.021164894104" lon="7.68828392028809">
    <ele>48</ele>
    <time>2007-11-06T15:27:49Z</time>
    </trkpt>
    <trkpt lat="52.0220232009888" lon="7.68933534622192">
    <ele>48</ele>
    <time>2007-11-06T15:28:13Z</time>
    </trkpt>
    <trkpt lat="52.0223021507263" lon="7.68946409225464">
    <ele>47</ele>
    <time>2007-11-06T15:28:19Z</time>
    </trkpt>
    <trkpt lat="52.0234394073486" lon="7.68924951553345">
    <ele>47</ele>
    <time>2007-11-06T15:28:51Z</time>
    </trkpt>
    <trkpt lat="52.023503780365" lon="7.68918514251709">
    <ele>47</ele>
    <time>2007-11-06T15:29:08Z</time>
    </trkpt>
    <trkpt lat="52.0235896110535" lon="7.68918514251709">
    <ele>46</ele>
    <time>2007-11-06T15:33:45Z</time>
    </trkpt>
    <trkpt lat="52.0236325263977" lon="7.68867015838623">
    <ele>44</ele>
    <time>2007-11-06T15:33:57Z</time>
    </trkpt>
    <trkpt lat="52.0239329338074" lon="7.68776893615723">
    <ele>41</ele>
    <time>2007-11-06T15:34:14Z</time>
    </trkpt>
    <trkpt lat="52.0243406295776" lon="7.68452882766724">
    <ele>41</ele>
    <time>2007-11-06T15:36:31Z</time>
    </trkpt>
    <trkpt lat="52.0244693756104" lon="7.684485912323">
    <ele>41</ele>
    <time>2007-11-06T15:36:35Z</time>
    </trkpt>
    <trkpt lat="52.0249199867249" lon="7.68452882766724">
    <ele>42</ele>
    <time>2007-11-06T15:36:50Z</time>
    </trkpt>
    <trkpt lat="52.0255674809303" lon="7.68271510080992">
    <ele>45</ele>
    <time>2007-11-06T15:41:14Z</time>
    </trkpt>
    <trkpt lat="52.0262718200684" lon="7.68006563186646">
    <ele>44</ele>
    <time>2007-11-06T15:45:39Z</time>
    </trkpt>
    <trkpt lat="52.0263576507568" lon="7.67952919006348">
    <ele>46</ele>
    <time>2007-11-06T15:45:58Z</time>
    </trkpt>
    <trkpt lat="52.0271944999695" lon="7.67894983291626">
    <ele>46</ele>
    <time>2007-11-06T15:46:46Z</time>
    </trkpt>
    <trkpt lat="52.0279240608215" lon="7.67864942550659">
    <ele>45</ele>
    <time>2007-11-06T15:47:04Z</time>
    </trkpt>
    <trkpt lat="52.0285892486572" lon="7.67860651016235">
    <ele>46</ele>
    <time>2007-11-06T15:47:24Z</time>
    </trkpt>
    <trkpt lat="52.0286536216736" lon="7.67834901809692">
    <ele>44</ele>
    <time>2007-11-06T15:47:48Z</time>
    </trkpt>
    <trkpt lat="52.0286750793457" lon="7.67800569534302">
    <ele>46</ele>
    <time>2007-11-06T15:48:52Z</time>
    </trkpt>
    <trkpt lat="52.0287823677063" lon="7.67779111862183">
    <ele>44</ele>
    <time>2007-11-06T15:49:05Z</time>
    </trkpt>
    <trkpt lat="52.0289949878606" lon="7.67760750724919">
    <ele>48</ele>
    <time>2007-11-06T15:51:17Z</time>
    </trkpt>
    <trkpt lat="52.0298880205671" lon="7.67675204470276">
    <ele>48</ele>
    <time>2007-11-06T15:52:24Z</time>
    </trkpt>
    <trkpt lat="52.034854888916" lon="7.67208337783813">
    <ele>52</ele>
    <time>2007-11-06T15:53:30Z</time>
    </trkpt>
    <trkpt lat="52.0351552963257" lon="7.67165422439575">
    <ele>53</ele>
    <time>2007-11-06T15:53:49Z</time>
    </trkpt>
    <trkpt lat="52.035756111145" lon="7.67017364501953">
    <ele>49</ele>
    <time>2007-11-06T16:22:39Z</time>
    </trkpt>
    <trkpt lat="52.0361638069153" lon="7.66933679580688">
    <ele>45</ele>
    <time>2007-11-06T16:22:19Z</time>
    </trkpt>
    <trkpt lat="52.0367217063904" lon="7.66811370849609">
    <ele>42</ele>
    <time>2007-11-06T16:21:57Z</time>
    </trkpt>
    <trkpt lat="52.0371508598328" lon="7.66716957092285">
    <ele>41</ele>
    <time>2007-11-06T16:21:35Z</time>
    </trkpt>
  </trkseg>
</trk>
<extensions>
</extensions>
</gpx>
